Observation data for Colorado City on 06/20/2019      Previous  Date       Current Mesonet Observations  Soil Data  Daily Summary Page  Observations in Plain Language
KCO2 200500Z 07007KT 22/19 A2982 RMK A01 T02230191  RH  082%=      5-min Rain = 0
KCO2 200501Z 07006KT 22/19 A2982 RMK A01 T02230191  RH  082%=      5-min Rain = 0
KCO2 200502Z 06006KT 22/19 A2982 RMK A01 T02220190  RH  082%=      5-min Rain = 0
KCO2 200503Z 07006KT 22/19 A2982 RMK A01 T02220190  RH  082%=      5-min Rain = 0
KCO2 200504Z 07007KT 22/19 A2982 RMK A01 T02210189  RH  082%=      5-min Rain = 0
KCO2 200505Z 07006KT 22/19 A2982 RMK A01 T02200188  RH  082%=      5-min Rain = 0
KCO2 200506Z 07006KT 22/19 A2982 RMK A01 T02200188  RH  082%=      5-min Rain = 0
KCO2 200507Z 08007KT 22/19 A2982 RMK A01 T02200188  RH  082%=      5-min Rain = 0
KCO2 200508Z 08007KT 22/19 A2982 RMK A01 T02200187  RH  082%=      5-min Rain = 0
KCO2 200509Z 09007KT 22/19 A2982 RMK A01 T02200186  RH  081%=      5-min Rain = 0
KCO2 200510Z 09007KT 22/19 A2982 RMK A01 T02210185  RH  080%=      5-min Rain = 0
KCO2 200511Z 09007KT 22/19 A2982 RMK A01 T02230185  RH  079%=      5-min Rain = 0
KCO2 200512Z 09007KT 22/19 A2982 RMK A01 T02240185  RH  078%=      5-min Rain = 0
KCO2 200513Z 09007KT 23/19 A2982 RMK A01 T02250185  RH  078%=      5-min Rain = 0
KCO2 200514Z 10007KT 23/19 A2982 RMK A01 T02250185  RH  078%=      5-min Rain = 0
KCO2 200515Z 10007KT 23/19 A2982 RMK A01 T02260185  RH  078%=      5-min Rain = 0
KCO2 200516Z 10007KT 23/19 A2982 RMK A01 T02260185  RH  078%=      5-min Rain = 0
KCO2 200517Z 10007KT 23/19 A2982 RMK A01 T02250185  RH  078%=      5-min Rain = 0
KCO2 200518Z 09007KT 23/19 A2982 RMK A01 T02250186  RH  079%=      5-min Rain = 0
KCO2 200519Z 09007KT 22/19 A2982 RMK A01 T02240186  RH  079%=      5-min Rain = 0
KCO2 200520Z 09007KT 22/19 A2982 RMK A01 T02240186  RH  079%=      5-min Rain = 0
KCO2 200521Z 09008KT 22/19 A2982 RMK A01 T02240186  RH  079%=      5-min Rain = 0
KCO2 200522Z 09008KT 22/19 A2983 RMK A01 T02240185  RH  079%=      5-min Rain = 0
KCO2 200523Z 09009KT 22/19 A2983 RMK A01 T02240185  RH  078%=      5-min Rain = 0
KCO2 200524Z 10008KT 23/18 A2983 RMK A01 T02250184  RH  078%=      5-min Rain = 0
KCO2 200525Z 10008KT 23/19 A2983 RMK A01 T02250185  RH  078%=      5-min Rain = 0
KCO2 200526Z 10008KT 23/19 A2983 RMK A01 T02250185  RH  078%=      5-min Rain = 0
KCO2 200527Z 10008KT 22/19 A2983 RMK A01 T02240185  RH  078%=      5-min Rain = 0
KCO2 200528Z 11007KT 22/19 A2983 RMK A01 T02230185  RH  079%=      5-min Rain = 0
KCO2 200529Z 12007KT 22/18 A2983 RMK A01 T02220184  RH  079%=      5-min Rain = 0
KCO2 200530Z 12007KT 22/18 A2983 RMK A01 T02220184  RH  079%=      5-min Rain = 0
KCO2 200531Z 12007KT 22/18 A2983 RMK A01 T02220184  RH  079%=      5-min Rain = 0
KCO2 200532Z 12007KT 22/18 A2983 RMK A01 T02220184  RH  079%=      5-min Rain = 0
KCO2 200533Z 11007KT 22/18 A2983 RMK A01 T02210184  RH  079%=      5-min Rain = 0
KCO2 200534Z 11007KT 22/18 A2983 RMK A01 T02210184  RH  080%=      5-min Rain = 0
KCO2 200535Z 11007KT 22/18 A2983 RMK A01 T02200184  RH  080%=      5-min Rain = 0
KCO2 200536Z 11007KT 22/19 A2983 RMK A01 T02200185  RH  081%=      5-min Rain = 0
KCO2 200537Z 10007KT 22/18 A2983 RMK A01 T02180184  RH  081%=      5-min Rain = 0
KCO2 200538Z 10007KT 22/19 A2983 RMK A01 T02180185  RH  081%=      5-min Rain = 0
KCO2 200539Z 10007KT 22/19 A2983 RMK A01 T02180185  RH  081%=      5-min Rain = 0
KCO2 200540Z 10007KT 22/19 A2983 RMK A01 T02180185  RH  082%=      5-min Rain = 0
KCO2 200541Z 11007KT 22/19 A2983 RMK A01 T02180185  RH  082%=      5-min Rain = 0
KCO2 200542Z 11007KT 22/19 A2983 RMK A01 T02170185  RH  082%=      5-min Rain = 0
KCO2 200543Z 11007KT 22/19 A2983 RMK A01 T02160185  RH  082%=      5-min Rain = 0
KCO2 200544Z 12007KT 22/19 A2983 RMK A01 T02160185  RH  082%=      5-min Rain = 0
KCO2 200545Z 12007KT 22/18 A2983 RMK A01 T02150184  RH  083%=      5-min Rain = 0
KCO2 200546Z 13007KT 21/18 A2983 RMK A01 T02140184  RH  083%=      5-min Rain = 0
KCO2 200547Z 13007KT 21/18 A2983 RMK A01 T02140184  RH  083%=      5-min Rain = 0
KCO2 200548Z 13007KT 21/18 A2983 RMK A01 T02140184  RH  083%=      5-min Rain = 0
KCO2 200549Z 13007KT 21/18 A2983 RMK A01 T02140184  RH  083%=      5-min Rain = 0
KCO2 200550Z 13007KT 21/18 A2982 RMK A01 T02130184  RH  083%=      5-min Rain = 0
KCO2 200551Z 13007KT 21/18 A2982 RMK A01 T02130184  RH  084%=      5-min Rain = 0
KCO2 200552Z 13007KT 21/18 A2982 RMK A01 T02120184  RH  084%=      5-min Rain = 0
KCO2 200553Z 14006KT 21/18 A2982 RMK A01 T02120184  RH  084%=      5-min Rain = 0
KCO2 200554Z 14006KT 21/18 A2982 RMK A01 T02110184  RH  085%=      5-min Rain = 0
KCO2 200555Z 14006KT 21/18 A2982 RMK A01 T02100184  RH  085%=      5-min Rain = 0
KCO2 200556Z 14005KT 21/18 A2982 RMK A01 T02090184  RH  085%=      5-min Rain = 0
KCO2 200557Z 14005KT 21/18 A2982 RMK A01 T02090184  RH  086%=      5-min Rain = 0
KCO2 200558Z 14005KT 21/18 A2982 RMK A01 T02080184  RH  086%=      5-min Rain = 0
KCO2 200559Z 14005KT 21/18 A2982 RMK A01 T02080184  RH  086%=      5-min Rain = 0
KCO2 200600Z 15005KT 21/18 A2982 RMK A01 T02070184  RH  086%=      5-min Rain = 0
KCO2 200601Z 15005KT 21/18 A2982 RMK A01 T02070184  RH  087%=      5-min Rain = 0
KCO2 200602Z 15004KT 21/18 A2982 RMK A01 T02060184  RH  087%=      5-min Rain = 0
KCO2 200603Z 15004KT 21/18 A2982 RMK A01 T02050184  RH  087%=      5-min Rain = 0
KCO2 200604Z 15005KT 21/18 A2982 RMK A01 T02060184  RH  087%=      5-min Rain = 0
KCO2 200605Z 15005KT 21/18 A2982 RMK A01 T02050184  RH  087%=      5-min Rain = 0
KCO2 200606Z 15005KT 21/18 A2982 RMK A01 T02050184  RH  087%=      5-min Rain = 0
KCO2 200607Z 15005KT 21/18 A2982 RMK A01 T02050183  RH  087%=      5-min Rain = 0
KCO2 200608Z 15005KT 21/18 A2982 RMK A01 T02050183  RH  087%=      5-min Rain = 0
KCO2 200609Z 15005KT 20/18 A2982 RMK A01 T02040183  RH  088%=      5-min Rain = 0
KCO2 200610Z 14005KT 20/18 A2982 RMK A01 T02040183  RH  088%=      5-min Rain = 0
KCO2 200611Z 14005KT 20/18 A2982 RMK A01 T02040183  RH  088%=      5-min Rain = 0
KCO2 200612Z 14005KT 20/18 A2982 RMK A01 T02040184  RH  088%=      5-min Rain = 0
KCO2 200613Z 14005KT 21/18 A2982 RMK A01 T02050184  RH  088%=      5-min Rain = 0
KCO2 200614Z 14005KT 21/18 A2982 RMK A01 T02060183  RH  087%=      5-min Rain = 0
KCO2 200615Z 14005KT 21/18 A2982 RMK A01 T02070184  RH  087%=      5-min Rain = 0
KCO2 200616Z 14005KT 21/18 A2982 RMK A01 T02070184  RH  086%=      5-min Rain = 0
KCO2 200617Z 13005KT 21/18 A2982 RMK A01 T02070184  RH  087%=      5-min Rain = 0
KCO2 200618Z 13005KT 21/18 A2982 RMK A01 T02070184  RH  087%=      5-min Rain = 0
KCO2 200619Z 12005KT 21/18 A2982 RMK A01 T02070184  RH  087%=      5-min Rain = 0
KCO2 200620Z 12005KT 21/18 A2982 RMK A01 T02060184  RH  087%=      5-min Rain = 0
KCO2 200621Z 13005KT 21/18 A2982 RMK A01 T02070184  RH  087%=      5-min Rain = 0
KCO2 200622Z 13005KT 21/18 A2982 RMK A01 T02070184  RH  087%=      5-min Rain = 0
KCO2 200623Z 12005KT 21/18 A2982 RMK A01 T02070184  RH  087%=      5-min Rain = 0
KCO2 200624Z 12005KT 21/18 A2982 RMK A01 T02080184  RH  087%=      5-min Rain = 0
KCO2 200625Z 12005KT 21/18 A2982 RMK A01 T02070184  RH  087%=      5-min Rain = 0
KCO2 200626Z 12005KT 21/19 A2982 RMK A01 T02070185  RH  087%=      5-min Rain = 0
KCO2 200627Z 12006KT 21/18 A2982 RMK A01 T02070184  RH  087%=      5-min Rain = 0
KCO2 200628Z 13005KT 21/19 A2982 RMK A01 T02070185  RH  087%=      5-min Rain = 0
KCO2 200629Z 12005KT 21/19 A2982 RMK A01 T02070185  RH  087%=      5-min Rain = 0
KCO2 200630Z 13005KT 21/19 A2982 RMK A01 T02070185  RH  087%=      5-min Rain = 0
KCO2 200631Z 12005KT 21/18 A2982 RMK A01 T02070184  RH  087%=      5-min Rain = 0
KCO2 200632Z 12005KT 21/18 A2982 RMK A01 T02070184  RH  087%=      5-min Rain = 0
KCO2 200633Z 12005KT 21/18 A2982 RMK A01 T02070184  RH  087%=      5-min Rain = 0
KCO2 200634Z 12006KT 21/18 A2982 RMK A01 T02070184  RH  086%=      5-min Rain = 0
KCO2 200635Z 12005KT 21/18 A2982 RMK A01 T02070184  RH  086%=      5-min Rain = 0
KCO2 200636Z 12005KT 21/18 A2982 RMK A01 T02080184  RH  086%=      5-min Rain = 0
KCO2 200637Z 12004KT 21/18 A2982 RMK A01 T02080183  RH  086%=      5-min Rain = 0
KCO2 200638Z 11004KT 21/18 A2982 RMK A01 T02090183  RH  085%=      5-min Rain = 0
KCO2 200639Z 11005KT 21/18 A2982 RMK A01 T02090183  RH  085%=      5-min Rain = 0
KCO2 200640Z 10004KT 21/18 A2982 RMK A01 T02090183  RH  085%=      5-min Rain = 0
KCO2 200641Z 10004KT 21/18 A2982 RMK A01 T02090183  RH  085%=      5-min Rain = 0
KCO2 200642Z 10005KT 21/18 A2982 RMK A01 T02100184  RH  085%=      5-min Rain = 0
KCO2 200643Z 10006KT 21/18 A2982 RMK A01 T02100183  RH  085%=      5-min Rain = 0
KCO2 200644Z 11006KT 21/18 A2982 RMK A01 T02100183  RH  085%=      5-min Rain = 0
KCO2 200645Z 11007KT 21/18 A2982 RMK A01 T02090182  RH  085%=      5-min Rain = 0
KCO2 200646Z 11008KT 21/18 A2982 RMK A01 T02090182  RH  085%=      5-min Rain = 0
KCO2 200647Z 11008KT 21/18 A2982 RMK A01 T02090182  RH  085%=      5-min Rain = 0
KCO2 200648Z 11008KT 21/18 A2982 RMK A01 T02090182  RH  085%=      5-min Rain = 0
KCO2 200649Z 11008KT 21/18 A2982 RMK A01 T02090181  RH  084%=      5-min Rain = 0
KCO2 200650Z 11008KT 21/18 A2982 RMK A01 T02090181  RH  084%=      5-min Rain = 0
KCO2 200651Z 12009KT 21/18 A2982 RMK A01 T02090181  RH  084%=      5-min Rain = 0
KCO2 200652Z 12008KT 21/18 A2982 RMK A01 T02100181  RH  083%=      5-min Rain = 0
KCO2 200653Z 12008KT 21/18 A2982 RMK A01 T02110181  RH  083%=      5-min Rain = 0
KCO2 200654Z 11008KT 21/18 A2982 RMK A01 T02120181  RH  082%=      5-min Rain = 0
KCO2 200655Z 11008KT 21/18 A2982 RMK A01 T02130181  RH  082%=      5-min Rain = 0
KCO2 200656Z 11008KT 21/18 A2982 RMK A01 T02130181  RH  082%=      5-min Rain = 0
KCO2 200657Z 11008KT 21/18 A2982 RMK A01 T02130181  RH  082%=      5-min Rain = 0
KCO2 200658Z 11008KT 21/18 A2982 RMK A01 T02130181  RH  082%=      5-min Rain = 0
KCO2 200659Z 11008KT 21/18 A2982 RMK A01 T02130181  RH  082%=      5-min Rain = 0
KCO2 200700Z 11008KT 21/18 A2982 RMK A01 T02130181  RH  082%=      5-min Rain = 0
KCO2 200701Z 11008KT 21/18 A2981 RMK A01 T02130182  RH  082%=      5-min Rain = 0
KCO2 200702Z 11008KT 21/18 A2981 RMK A01 T02120182  RH  083%=      5-min Rain = 0
KCO2 200703Z 11008KT 21/18 A2981 RMK A01 T02120182  RH  083%=      5-min Rain = 0
KCO2 200704Z 11008KT 21/18 A2981 RMK A01 T02120181  RH  083%=      5-min Rain = 0
KCO2 200705Z 11008KT 21/18 A2981 RMK A01 T02120182  RH  083%=      5-min Rain = 0
KCO2 200706Z 11008KT 21/18 A2981 RMK A01 T02110181  RH  083%=      5-min Rain = 0
KCO2 200707Z 11008KT 21/18 A2981 RMK A01 T02110181  RH  083%=      5-min Rain = 0
KCO2 200708Z 11008KT 21/18 A2981 RMK A01 T02110182  RH  083%=      5-min Rain = 0
KCO2 200709Z 11008KT 21/18 A2981 RMK A01 T02100182  RH  084%=      5-min Rain = 0
KCO2 200710Z 11009KT 21/18 A2981 RMK A01 T02100182  RH  084%=      5-min Rain = 0
KCO2 200711Z 11009KT 21/18 A2981 RMK A01 T02100181  RH  084%=      5-min Rain = 0
KCO2 200712Z 11009KT 21/18 A2981 RMK A01 T02100182  RH  084%=      5-min Rain = 0
KCO2 200713Z 11009KT 21/18 A2981 RMK A01 T02090182  RH  084%=      5-min Rain = 0
KCO2 200714Z 11009KT 21/18 A2981 RMK A01 T02090181  RH  084%=      5-min Rain = 0
KCO2 200715Z 11009KT 21/18 A2981 RMK A01 T02090181  RH  084%=      5-min Rain = 0
KCO2 200716Z 11009KT 21/18 A298 RMK A01 T02090181  RH  084%=      5-min Rain = 0
KCO2 200717Z 11008KT 21/18 A298 RMK A01 T02080181  RH  085%=      5-min Rain = 0
KCO2 200718Z 11008KT 21/18 A298 RMK A01 T02080181  RH  085%=      5-min Rain = 0
KCO2 200719Z 11008KT 21/18 A298 RMK A01 T02080181  RH  085%=      5-min Rain = 0
KCO2 200720Z 11008KT 21/18 A2981 RMK A01 T02080181  RH  085%=      5-min Rain = 0
KCO2 200721Z 11008KT 21/18 A2981 RMK A01 T02080181  RH  085%=      5-min Rain = 0
KCO2 200722Z 11008KT 21/18 A298 RMK A01 T02080181  RH  085%=      5-min Rain = 0
KCO2 200723Z 11008KT 21/18 A298 RMK A01 T02080181  RH  085%=      5-min Rain = 0
KCO2 200724Z 11008KT 21/18 A298 RMK A01 T02080181  RH  085%=      5-min Rain = 0
KCO2 200725Z 11009KT 21/18 A298 RMK A01 T02070181  RH  085%=      5-min Rain = 0
KCO2 200726Z 11009KT 21/18 A298 RMK A01 T02070180  RH  084%=      5-min Rain = 0
KCO2 200727Z 11009KT 21/18 A2981 RMK A01 T02080180  RH  084%=      5-min Rain = 0
KCO2 200728Z 11009KT 21/18 A298 RMK A01 T02080179  RH  084%=      5-min Rain = 0
KCO2 200729Z 11009KT 21/18 A298 RMK A01 T02090179  RH  083%=      5-min Rain = 0
KCO2 200730Z 11009KT 21/18 A298 RMK A01 T02090179  RH  083%=      5-min Rain = 0
KCO2 200731Z 11009KT 21/18 A298 RMK A01 T02090179  RH  083%=      5-min Rain = 0
KCO2 200732Z 11009KT 21/18 A298 RMK A01 T02100179  RH  083%=      5-min Rain = 0
KCO2 200733Z 11008KT 21/18 A298 RMK A01 T02100179  RH  083%=      5-min Rain = 0
KCO2 200734Z 12008KT 21/18 A298 RMK A01 T02100179  RH  083%=      5-min Rain = 0
KCO2 200735Z 12008KT 21/18 A298 RMK A01 T02100179  RH  083%=      5-min Rain = 0
KCO2 200736Z 12008KT 21/18 A298 RMK A01 T02100179  RH  083%=      5-min Rain = 0
KCO2 200737Z 11009KT 21/18 A298 RMK A01 T02100179  RH  083%=      5-min Rain = 0
KCO2 200738Z 11009KT 21/18 A298 RMK A01 T02100180  RH  083%=      5-min Rain = 0
KCO2 200739Z 11009KT 21/18 A298 RMK A01 T02090180  RH  083%=      5-min Rain = 0
KCO2 200740Z 11009KT 21/18 A298 RMK A01 T02090179  RH  083%=      5-min Rain = 0
KCO2 200741Z 11009KT 21/18 A298 RMK A01 T02090180  RH  083%=      5-min Rain = 0
KCO2 200742Z 11009KT 21/18 A298 RMK A01 T02080179  RH  083%=      5-min Rain = 0
KCO2 200743Z 11010KT 21/18 A298 RMK A01 T02080180  RH  084%=      5-min Rain = 0
KCO2 200744Z 11010KT 21/18 A298 RMK A01 T02080180  RH  084%=      5-min Rain = 0
KCO2 200745Z 11009KT 21/18 A298 RMK A01 T02080179  RH  084%=      5-min Rain = 0
KCO2 200746Z 11009KT 21/18 A298 RMK A01 T02080179  RH  084%=      5-min Rain = 0
KCO2 200747Z 11009KT 21/18 A298 RMK A01 T02080179  RH  084%=      5-min Rain = 0
KCO2 200748Z 11008KT 21/18 A298 RMK A01 T02080179  RH  084%=      5-min Rain = 0
KCO2 200749Z 11008KT 21/18 A298 RMK A01 T02080179  RH  084%=      5-min Rain = 0
KCO2 200750Z 12008KT 21/18 A298 RMK A01 T02080179  RH  084%=      5-min Rain = 0
KCO2 200751Z 12008KT 21/18 A298 RMK A01 T02080179  RH  084%=      5-min Rain = 0
KCO2 200752Z 12008KT 21/18 A298 RMK A01 T02070179  RH  084%=      5-min Rain = 0
KCO2 200753Z 12009KT 21/18 A298 RMK A01 T02070179  RH  084%=      5-min Rain = 0
KCO2 200754Z 12009KT 21/18 A298 RMK A01 T02070179  RH  084%=      5-min Rain = 0
KCO2 200755Z 12009KT 21/18 A298 RMK A01 T02070179  RH  084%=      5-min Rain = 0
KCO2 200756Z 13009KT 21/18 A298 RMK A01 T02070179  RH  084%=      5-min Rain = 0
KCO2 200757Z 13009KT 21/18 A298 RMK A01 T02070179  RH  084%=      5-min Rain = 0
KCO2 200758Z 12009KT 21/18 A298 RMK A01 T02080179  RH  084%=      5-min Rain = 0
KCO2 200759Z 13009KT 21/18 A298 RMK A01 T02080179  RH  083%=      5-min Rain = 0
KCO2 200800Z 12009KT 21/18 A298 RMK A01 T02080179  RH  083%=      5-min Rain = 0
KCO2 200801Z 12010KT 21/18 A298 RMK A01 T02080179  RH  083%=      5-min Rain = 0
KCO2 200802Z 12010KT 21/18 A298 RMK A01 T02080179  RH  083%=      5-min Rain = 0
KCO2 200803Z 12010KT 21/18 A298 RMK A01 T02080179  RH  083%=      5-min Rain = 0
KCO2 200804Z 12009KT 21/18 A298 RMK A01 T02080179  RH  083%=      5-min Rain = 0
KCO2 200805Z 12008KT 21/18 A298 RMK A01 T02080179  RH  083%=      5-min Rain = 0
KCO2 200806Z 12008KT 21/18 A298 RMK A01 T02080179  RH  083%=      5-min Rain = 0
KCO2 200807Z 13008KT 21/18 A298 RMK A01 T02080179  RH  083%=      5-min Rain = 0
KCO2 200808Z 13008KT 21/18 A298 RMK A01 T02080179  RH  083%=      5-min Rain = 0
KCO2 200809Z 13008KT 21/18 A298 RMK A01 T02080179  RH  083%=      5-min Rain = 0
KCO2 200810Z 13007KT 21/18 A298 RMK A01 T02080179  RH  083%=      5-min Rain = 0
KCO2 200811Z 13007KT 21/18 A298 RMK A01 T02080179  RH  083%=      5-min Rain = 0
KCO2 200812Z 13007KT 21/18 A298 RMK A01 T02080179  RH  083%=      5-min Rain = 0
KCO2 200813Z 13007KT 21/18 A298 RMK A01 T02080179  RH  084%=      5-min Rain = 0
KCO2 200814Z 13007KT 21/18 A2979 RMK A01 T02070179  RH  084%=      5-min Rain = 0
KCO2 200815Z 12008KT 21/18 A2979 RMK A01 T02070179  RH  084%=      5-min Rain = 0
KCO2 200816Z 12009KT 21/18 A2979 RMK A01 T02060179  RH  085%=      5-min Rain = 0
KCO2 200817Z 12008KT 21/18 A2979 RMK A01 T02050179  RH  085%=      5-min Rain = 0
KCO2 200818Z 12008KT 21/18 A2979 RMK A01 T02050179  RH  085%=      5-min Rain = 0
KCO2 200819Z 12008KT 21/18 A2979 RMK A01 T02050179  RH  085%=      5-min Rain = 0
KCO2 200820Z 13008KT 21/18 A2979 RMK A01 T02050180  RH  085%=      5-min Rain = 0
KCO2 200821Z 13008KT 20/18 A2979 RMK A01 T02040179  RH  085%=      5-min Rain = 0
KCO2 200822Z 13008KT 20/18 A2979 RMK A01 T02040179  RH  086%=      5-min Rain = 0
KCO2 200823Z 13009KT 20/18 A2979 RMK A01 T02040180  RH  086%=      5-min Rain = 0
KCO2 200824Z 13009KT 20/18 A2979 RMK A01 T02030179  RH  086%=      5-min Rain = 0
KCO2 200825Z 13008KT 20/18 A2979 RMK A01 T02030179  RH  086%=      5-min Rain = 0
KCO2 200826Z 13008KT 20/18 A2979 RMK A01 T02040179  RH  086%=      5-min Rain = 0
KCO2 200827Z 13008KT 20/18 A2979 RMK A01 T02040179  RH  085%=      5-min Rain = 0
KCO2 200828Z 13009KT 21/18 A2979 RMK A01 T02050179  RH  085%=      5-min Rain = 0
KCO2 200829Z 13009KT 21/18 A2979 RMK A01 T02050179  RH  085%=      5-min Rain = 0
KCO2 200830Z 13008KT 21/18 A2979 RMK A01 T02060179  RH  085%=      5-min Rain = 0
KCO2 200831Z 13008KT 21/18 A2979 RMK A01 T02060180  RH  085%=      5-min Rain = 0
KCO2 200832Z 14008KT 21/18 A2979 RMK A01 T02060179  RH  085%=      5-min Rain = 0
KCO2 200833Z 14007KT 21/18 A2979 RMK A01 T02060180  RH  085%=      5-min Rain = 0
KCO2 200834Z 13007KT 21/18 A2979 RMK A01 T02060180  RH  085%=      5-min Rain = 0
KCO2 200835Z 14007KT 21/18 A2979 RMK A01 T02050180  RH  085%=      5-min Rain = 0
KCO2 200836Z 14007KT 20/18 A2979 RMK A01 T02040180  RH  086%=      5-min Rain = 0
KCO2 200837Z 14007KT 20/18 A2979 RMK A01 T02040180  RH  086%=      5-min Rain = 0
KCO2 200838Z 13007KT 20/18 A2979 RMK A01 T02030180  RH  087%=      5-min Rain = 0
KCO2 200839Z 13007KT 20/18 A2979 RMK A01 T02030180  RH  087%=      5-min Rain = 0
KCO2 200840Z 14007KT 20/18 A2979 RMK A01 T02020180  RH  087%=      5-min Rain = 0
KCO2 200841Z 14007KT 20/18 A2979 RMK A01 T02020180  RH  087%=      5-min Rain = 0
KCO2 200842Z 14007KT 20/18 A2979 RMK A01 T02020180  RH  087%=      5-min Rain = 0
KCO2 200843Z 14008KT 20/18 A2979 RMK A01 T02020180  RH  087%=      5-min Rain = 0
KCO2 200844Z 14007KT 20/18 A2979 RMK A01 T02020180  RH  087%=      5-min Rain = 0
KCO2 200845Z 14008KT 20/18 A2979 RMK A01 T02020180  RH  087%=      5-min Rain = 0
KCO2 200846Z 14008KT 20/18 A2979 RMK A01 T02030181  RH  087%=      5-min Rain = 0
KCO2 200847Z 14008KT 20/18 A2979 RMK A01 T02040181  RH  087%=      5-min Rain = 0
KCO2 200848Z 14009KT 21/18 A2979 RMK A01 T02050182  RH  087%=      5-min Rain = 0
KCO2 200849Z 14008KT 21/18 A2979 RMK A01 T02050182  RH  087%=      5-min Rain = 0
KCO2 200850Z 14009KT 21/18 A2979 RMK A01 T02050182  RH  086%=      5-min Rain = 0
KCO2 200851Z 14009KT 21/18 A2978 RMK A01 T02060182  RH  086%=      5-min Rain = 0
KCO2 200852Z 14008KT 21/18 A2979 RMK A01 T02060182  RH  086%=      5-min Rain = 0
KCO2 200853Z 14009KT 21/18 A2979 RMK A01 T02070182  RH  086%=      5-min Rain = 0
KCO2 200854Z 15008KT 21/18 A2979 RMK A01 T02070182  RH  086%=      5-min Rain = 0
KCO2 200855Z 15009KT 21/18 A2978 RMK A01 T02070182  RH  086%=      5-min Rain = 0
KCO2 200856Z 15008KT 21/18 A2979 RMK A01 T02070182  RH  085%=      5-min Rain = 0
KCO2 200857Z 15008KT 21/18 A2978 RMK A01 T02070182  RH  085%=      5-min Rain = 0
KCO2 200858Z 15008KT 21/18 A2978 RMK A01 T02080182  RH  085%=      5-min Rain = 0
KCO2 200859Z 15008KT 21/18 A2978 RMK A01 T02080182  RH  085%=      5-min Rain = 0
KCO2 200900Z 14008KT 21/18 A2978 RMK A01 T02080182  RH  085%=      5-min Rain = 0
KCO2 200901Z 15009KT 21/18 A2978 RMK A01 T02080182  RH  085%=      5-min Rain = 0
KCO2 200902Z 14009KT 21/18 A2978 RMK A01 T02080182  RH  085%=      5-min Rain = 0
KCO2 200903Z 15008KT 21/18 A2978 RMK A01 T02080182  RH  085%=      5-min Rain = 0
KCO2 200904Z 14008KT 21/18 A2978 RMK A01 T02080182  RH  085%=      5-min Rain = 0
KCO2 200905Z 14009KT 21/18 A2978 RMK A01 T02070182  RH  085%=      5-min Rain = 0
KCO2 200906Z 14008KT 21/18 A2978 RMK A01 T02070182  RH  086%=      5-min Rain = 0
KCO2 200907Z 14009KT 21/18 A2978 RMK A01 T02070182  RH  086%=      5-min Rain = 0
KCO2 200908Z 14009KT 21/18 A2978 RMK A01 T02060182  RH  086%=      5-min Rain = 0
KCO2 200909Z 14008KT 21/18 A2978 RMK A01 T02060183  RH  086%=      5-min Rain = 0
KCO2 200910Z 14008KT 21/18 A2978 RMK A01 T02060183  RH  086%=      5-min Rain = 0
KCO2 200911Z 14007KT 21/18 A2978 RMK A01 T02060183  RH  086%=      5-min Rain = 0
KCO2 200912Z 14008KT 21/18 A2978 RMK A01 T02050183  RH  087%=      5-min Rain = 0
KCO2 200913Z 14007KT 21/18 A2979 RMK A01 T02050183  RH  087%=      5-min Rain = 0
KCO2 200914Z 14007KT 20/18 A2979 RMK A01 T02040182  RH  087%=      5-min Rain = 0
KCO2 200915Z 14007KT 20/18 A2979 RMK A01 T02040182  RH  088%=      5-min Rain = 0
KCO2 200916Z 14006KT 20/18 A2979 RMK A01 T02030182  RH  088%=      5-min Rain = 0
KCO2 200917Z 14007KT 20/18 A2979 RMK A01 T02030182  RH  088%=      5-min Rain = 0
KCO2 200918Z 14007KT 20/18 A2979 RMK A01 T02020182  RH  088%=      5-min Rain = 0
KCO2 200919Z 13006KT 20/18 A2979 RMK A01 T02020182  RH  088%=      5-min Rain = 0
KCO2 200920Z 13006KT 20/18 A2979 RMK A01 T02020182  RH  088%=      5-min Rain = 0
KCO2 200921Z 13006KT 20/18 A2979 RMK A01 T02010182  RH  088%=      5-min Rain = 0
KCO2 200922Z 14006KT 20/18 A2979 RMK A01 T02010182  RH  089%=      5-min Rain = 0
KCO2 200923Z 14006KT 20/18 A2979 RMK A01 T02010182  RH  089%=      5-min Rain = 0
KCO2 200924Z 14005KT 20/18 A2979 RMK A01 T02000181  RH  089%=      5-min Rain = 0
KCO2 200925Z 14006KT 20/18 A2979 RMK A01 T01990181  RH  089%=      5-min Rain = 0
KCO2 200926Z 14006KT 20/18 A2979 RMK A01 T01980181  RH  090%=      5-min Rain = 0
KCO2 200927Z 14006KT 20/18 A2979 RMK A01 T01980181  RH  090%=      5-min Rain = 0
KCO2 200928Z 14006KT 20/18 A2979 RMK A01 T01970180  RH  090%=      5-min Rain = 0
KCO2 200929Z 15006KT 20/18 A2979 RMK A01 T01970180  RH  090%=      5-min Rain = 0
KCO2 200930Z 14007KT 20/18 A2979 RMK A01 T01970181  RH  090%=      5-min Rain = 0
KCO2 200931Z 15006KT 20/18 A2979 RMK A01 T01970181  RH  091%=      5-min Rain = 0
KCO2 200932Z 15006KT 20/18 A2979 RMK A01 T01960181  RH  091%=      5-min Rain = 0
KCO2 200933Z 14006KT 20/18 A2979 RMK A01 T01970181  RH  091%=      5-min Rain = 0
KCO2 200934Z 15006KT 20/18 A2979 RMK A01 T01960180  RH  091%=      5-min Rain = 0
KCO2 200935Z 14007KT 20/18 A2979 RMK A01 T01960180  RH  091%=      5-min Rain = 0
KCO2 200936Z 14007KT 20/18 A2979 RMK A01 T01960181  RH  091%=      5-min Rain = 0
KCO2 200937Z 15006KT 20/18 A2979 RMK A01 T01960180  RH  091%=      5-min Rain = 0
KCO2 200938Z 15006KT 20/18 A2979 RMK A01 T01960180  RH  091%=      5-min Rain = 0
KCO2 200939Z 15006KT 20/18 A2979 RMK A01 T01960181  RH  091%=      5-min Rain = 0
KCO2 200940Z 15006KT 20/18 A2979 RMK A01 T01970181  RH  090%=      5-min Rain = 0
KCO2 200941Z 15006KT 20/18 A2979 RMK A01 T01970181  RH  090%=      5-min Rain = 0
KCO2 200942Z 14006KT 20/18 A2979 RMK A01 T01970181  RH  090%=      5-min Rain = 0
KCO2 200943Z 15006KT 20/18 A2979 RMK A01 T01960180  RH  090%=      5-min Rain = 0
KCO2 200944Z 15006KT 20/18 A2979 RMK A01 T01960180  RH  090%=      5-min Rain = 0
KCO2 200945Z 15006KT 20/18 A2979 RMK A01 T01960180  RH  091%=      5-min Rain = 0
KCO2 200946Z 15006KT 20/18 A2979 RMK A01 T01960180  RH  091%=      5-min Rain = 0
KCO2 200947Z 15006KT 20/18 A2979 RMK A01 T01960180  RH  091%=      5-min Rain = 0
KCO2 200948Z 14006KT 20/18 A2979 RMK A01 T01960180  RH  090%=      5-min Rain = 0
KCO2 200949Z 14006KT 20/18 A2979 RMK A01 T01960180  RH  091%=      5-min Rain = 0
KCO2 200950Z 14006KT 20/18 A2979 RMK A01 T01950180  RH  091%=      5-min Rain = 0
KCO2 200951Z 15006KT 20/18 A2979 RMK A01 T01950180  RH  091%=      5-min Rain = 0
KCO2 200952Z 15005KT 20/18 A2979 RMK A01 T01950180  RH  091%=      5-min Rain = 0
KCO2 200953Z 15005KT 20/18 A2979 RMK A01 T01950180  RH  091%=      5-min Rain = 0
KCO2 200954Z 16005KT 20/18 A2979 RMK A01 T01950180  RH  091%=      5-min Rain = 0
KCO2 200955Z 16004KT 20/18 A2979 RMK A01 T01950179  RH  091%=      5-min Rain = 0
KCO2 200956Z 16004KT 19/18 A2979 RMK A01 T01940179  RH  091%=      5-min Rain = 0
KCO2 200957Z 16005KT 19/18 A2979 RMK A01 T01930179  RH  091%=      5-min Rain = 0
KCO2 200958Z 16005KT 19/18 A2979 RMK A01 T01930179  RH  091%=      5-min Rain = 0
KCO2 200959Z 16005KT 19/18 A2979 RMK A01 T01930179  RH  092%=      5-min Rain = 0
KCO2 201000Z 16006KT 19/18 A2979 RMK A01 T01930179  RH  092%=      5-min Rain = 0
KCO2 201001Z 15006KT 19/18 A2979 RMK A01 T01930179  RH  092%=      5-min Rain = 0
KCO2 201002Z 15006KT 19/18 A2979 RMK A01 T01920179  RH  092%=      5-min Rain = 0
KCO2 201003Z 15006KT 19/18 A2979 RMK A01 T01930179  RH  092%=      5-min Rain = 0
KCO2 201004Z 15006KT 19/18 A2979 RMK A01 T01930179  RH  092%=      5-min Rain = 0
KCO2 201005Z 15007KT 19/18 A2979 RMK A01 T01930179  RH  092%=      5-min Rain = 0
KCO2 201006Z 15007KT 19/18 A2979 RMK A01 T01920179  RH  092%=      5-min Rain = 0
KCO2 201007Z 14007KT 19/18 A2979 RMK A01 T01930179  RH  092%=      5-min Rain = 0
KCO2 201008Z 15007KT 19/18 A2979 RMK A01 T01930179  RH  092%=      5-min Rain = 0
KCO2 201009Z 15008KT 19/18 A2979 RMK A01 T01920179  RH  092%=      5-min Rain = 0
KCO2 201010Z 14008KT 19/18 A2979 RMK A01 T01930180  RH  092%=      5-min Rain = 0
KCO2 201011Z 14007KT 19/18 A2979 RMK A01 T01930180  RH  092%=      5-min Rain = 0
KCO2 201012Z 14007KT 19/18 A2979 RMK A01 T01940180  RH  092%=      5-min Rain = 0
KCO2 201013Z 14007KT 19/18 A2979 RMK A01 T01940180  RH  092%=      5-min Rain = 0
KCO2 201014Z 14007KT 19/18 A2979 RMK A01 T01930180  RH  092%=      5-min Rain = 0
KCO2 201015Z 14007KT 19/18 A2979 RMK A01 T01930180  RH  092%=      5-min Rain = 0
KCO2 201016Z 14007KT 19/18 A2979 RMK A01 T01930180  RH  092%=      5-min Rain = 0
KCO2 201017Z 14007KT 19/18 A2979 RMK A01 T01930180  RH  092%=      5-min Rain = 0
KCO2 201018Z 14008KT 19/18 A2979 RMK A01 T01930180  RH  092%=      5-min Rain = 0
KCO2 201019Z 14007KT 19/18 A2979 RMK A01 T01930181  RH  092%=      5-min Rain = 0
KCO2 201020Z 14007KT 19/18 A2979 RMK A01 T01940181  RH  092%=      5-min Rain = 0
KCO2 201021Z 14007KT 19/18 A2979 RMK A01 T01940181  RH  092%=      5-min Rain = 0
KCO2 201022Z 14007KT 19/18 A2979 RMK A01 T01940181  RH  092%=      5-min Rain = 0
KCO2 201023Z 14007KT 20/18 A2979 RMK A01 T01950182  RH  092%=      5-min Rain = 0
KCO2 201024Z 14007KT 20/18 A2979 RMK A01 T01950182  RH  092%=      5-min Rain = 0
KCO2 201025Z 15006KT 20/18 A2979 RMK A01 T01950181  RH  092%=      5-min Rain = 0
KCO2 201026Z 15006KT 20/18 A2979 RMK A01 T01950181  RH  092%=      5-min Rain = 0
KCO2 201027Z 15006KT 20/18 A2979 RMK A01 T01950182  RH  092%=      5-min Rain = 0
KCO2 201028Z 15007KT 20/18 A2979 RMK A01 T01950181  RH  092%=      5-min Rain = 0
KCO2 201029Z 15006KT 20/18 A2979 RMK A01 T01950181  RH  092%=      5-min Rain = 0
KCO2 201030Z 15007KT 20/18 A2979 RMK A01 T01950181  RH  092%=      5-min Rain = 0
KCO2 201031Z 15006KT 20/18 A2979 RMK A01 T01950181  RH  092%=      5-min Rain = 0
KCO2 201032Z 15007KT 20/18 A2979 RMK A01 T01950181  RH  092%=      5-min Rain = 0
KCO2 201033Z 15007KT 20/18 A2979 RMK A01 T01950181  RH  092%=      5-min Rain = 0
KCO2 201034Z 15007KT 20/18 A2979 RMK A01 T01950181  RH  092%=      5-min Rain = 0
KCO2 201035Z 15007KT 20/18 A2979 RMK A01 T01950181  RH  092%=      5-min Rain = 0
KCO2 201036Z 15007KT 20/18 A2979 RMK A01 T01960182  RH  092%=      5-min Rain = 0
KCO2 201037Z 15006KT 20/18 A2979 RMK A01 T01960182  RH  092%=      5-min Rain = 0
KCO2 201038Z 15006KT 20/18 A2979 RMK A01 T01960182  RH  091%=      5-min Rain = 0
KCO2 201039Z 15006KT 20/18 A2979 RMK A01 T01970182  RH  091%=      5-min Rain = 0
KCO2 201040Z 16006KT 20/18 A2979 RMK A01 T01970182  RH  091%=      5-min Rain = 0
KCO2 201041Z 16005KT 20/18 A2979 RMK A01 T01970182  RH  091%=      5-min Rain = 0
KCO2 201042Z 16005KT 20/18 A2979 RMK A01 T01970182  RH  091%=      5-min Rain = 0
KCO2 201043Z 16005KT 20/18 A2979 RMK A01 T01970181  RH  091%=      5-min Rain = 0
KCO2 201044Z 16006KT 20/18 A2979 RMK A01 T01970181  RH  091%=      5-min Rain = 0
KCO2 201045Z 16006KT 20/18 A2979 RMK A01 T01960181  RH  091%=      5-min Rain = 0
KCO2 201046Z 16007KT 20/18 A2979 RMK A01 T01960181  RH  091%=      5-min Rain = 0
KCO2 201047Z 16007KT 20/18 A2979 RMK A01 T01960181  RH  091%=      5-min Rain = 0
KCO2 201048Z 16007KT 20/18 A2979 RMK A01 T01960181  RH  091%=      5-min Rain = 0
KCO2 201049Z 16006KT 20/18 A2979 RMK A01 T01960182  RH  091%=      5-min Rain = 0
KCO2 201050Z 15006KT 20/18 A2979 RMK A01 T01970182  RH  091%=      5-min Rain = 0
KCO2 201051Z 15007KT 20/18 A2979 RMK A01 T01970182  RH  091%=      5-min Rain = 0
KCO2 201052Z 15007KT 20/18 A2979 RMK A01 T01970182  RH  091%=      5-min Rain = 0
KCO2 201053Z 15007KT 20/18 A2979 RMK A01 T01960182  RH  091%=      5-min Rain = 0
KCO2 201054Z 15006KT 20/18 A2979 RMK A01 T01960181  RH  091%=      5-min Rain = 0
KCO2 201055Z 15006KT 20/18 A2979 RMK A01 T01960182  RH  091%=      5-min Rain = 0
KCO2 201056Z 15007KT 20/18 A2979 RMK A01 T01960181  RH  091%=      5-min Rain = 0
KCO2 201057Z 15007KT 20/18 A2979 RMK A01 T01960182  RH  092%=      5-min Rain = 0
KCO2 201058Z 15007KT 20/18 A2979 RMK A01 T01960182  RH  091%=      5-min Rain = 0
KCO2 201059Z 15007KT 20/18 A298 RMK A01 T01950181  RH  092%=      5-min Rain = 0
KCO2 201100Z 15007KT 20/18 A298 RMK A01 T01950181  RH  092%=      5-min Rain = 0
KCO2 201101Z 14007KT 20/18 A298 RMK A01 T01950181  RH  092%=      5-min Rain = 0
KCO2 201102Z 15007KT 20/18 A298 RMK A01 T01950182  RH  092%=      5-min Rain = 0
KCO2 201103Z 14007KT 20/18 A298 RMK A01 T01950182  RH  092%=      5-min Rain = 0
KCO2 201104Z 15007KT 20/18 A298 RMK A01 T01950182  RH  092%=      5-min Rain = 0
KCO2 201105Z 15006KT 20/18 A298 RMK A01 T01950182  RH  092%=      5-min Rain = 0
KCO2 201106Z 15006KT 20/18 A298 RMK A01 T01950182  RH  092%=      5-min Rain = 0
KCO2 201107Z 15006KT 20/18 A298 RMK A01 T01950182  RH  092%=      5-min Rain = 0
KCO2 201108Z 15006KT 20/18 A298 RMK A01 T01950182  RH  092%=      5-min Rain = 0
KCO2 201109Z 15006KT 20/18 A298 RMK A01 T01950181  RH  092%=      5-min Rain = 0
KCO2 201110Z 16006KT 19/18 A298 RMK A01 T01940181  RH  092%=      5-min Rain = 0
KCO2 201111Z 16006KT 19/18 A298 RMK A01 T01940181  RH  092%=      5-min Rain = 0
KCO2 201112Z 16006KT 19/18 A298 RMK A01 T01930180  RH  092%=      5-min Rain = 0
KCO2 201113Z 16006KT 19/18 A298 RMK A01 T01930180  RH  092%=      5-min Rain = 0
KCO2 201114Z 16006KT 19/18 A298 RMK A01 T01920180  RH  092%=      5-min Rain = 0
KCO2 201115Z 16006KT 19/18 A298 RMK A01 T01920180  RH  093%=      5-min Rain = 0
KCO2 201116Z 16006KT 19/18 A298 RMK A01 T01920180  RH  093%=      5-min Rain = 0
KCO2 201117Z 16006KT 19/18 A298 RMK A01 T01920180  RH  093%=      5-min Rain = 0
KCO2 201118Z 16006KT 19/18 A298 RMK A01 T01920180  RH  093%=      5-min Rain = 0
KCO2 201119Z 16006KT 19/18 A298 RMK A01 T01920180  RH  093%=      5-min Rain = 0
KCO2 201120Z 16006KT 19/18 A298 RMK A01 T01910180  RH  093%=      5-min Rain = 0
KCO2 201121Z 16005KT 19/18 A298 RMK A01 T01910179  RH  093%=      5-min Rain = 0
KCO2 201122Z 16006KT 19/18 A298 RMK A01 T01910179  RH  093%=      5-min Rain = 0
KCO2 201123Z 17006KT 19/18 A298 RMK A01 T01910179  RH  093%=      5-min Rain = 0
KCO2 201124Z 17006KT 19/18 A298 RMK A01 T01910179  RH  093%=      5-min Rain = 0
KCO2 201125Z 17006KT 19/18 A298 RMK A01 T01910179  RH  093%=      5-min Rain = 0
KCO2 201126Z 16006KT 19/18 A298 RMK A01 T01910179  RH  093%=      5-min Rain = 0
KCO2 201127Z 16006KT 19/18 A298 RMK A01 T01900179  RH  093%=      5-min Rain = 0
KCO2 201128Z 16006KT 19/18 A298 RMK A01 T01900179  RH  093%=      5-min Rain = 0
KCO2 201129Z 16005KT 19/18 A298 RMK A01 T01900179  RH  093%=      5-min Rain = 0
KCO2 201130Z 16005KT 19/18 A298 RMK A01 T01900179  RH  093%=      5-min Rain = 0
KCO2 201131Z 16005KT 19/18 A298 RMK A01 T01900178  RH  093%=      5-min Rain = 0
KCO2 201132Z 16006KT 19/18 A298 RMK A01 T01900179  RH  093%=      5-min Rain = 0
KCO2 201133Z 16006KT 19/18 A298 RMK A01 T01900178  RH  093%=      5-min Rain = 0
KCO2 201134Z 16006KT 19/18 A298 RMK A01 T01890178  RH  093%=      5-min Rain = 0
KCO2 201135Z 16006KT 19/18 A298 RMK A01 T01890178  RH  093%=      5-min Rain = 0
KCO2 201136Z 16006KT 19/18 A298 RMK A01 T01890178  RH  093%=      5-min Rain = 0
KCO2 201137Z 16006KT 19/18 A298 RMK A01 T01890177  RH  093%=      5-min Rain = 0
KCO2 201138Z 16006KT 19/18 A298 RMK A01 T01890177  RH  093%=      5-min Rain = 0
KCO2 201139Z 16006KT 19/18 A298 RMK A01 T01880177  RH  093%=      5-min Rain = 0
KCO2 201140Z 16006KT 19/18 A298 RMK A01 T01880177  RH  093%=      5-min Rain = 0
KCO2 201141Z 16006KT 19/18 A298 RMK A01 T01880177  RH  093%=      5-min Rain = 0
KCO2 201142Z 16006KT 19/18 A298 RMK A01 T01880177  RH  093%=      5-min Rain = 0
KCO2 201143Z 16006KT 19/18 A298 RMK A01 T01880177  RH  093%=      5-min Rain = 0
KCO2 201144Z 16006KT 19/18 A298 RMK A01 T01890177  RH  093%=      5-min Rain = 0
KCO2 201145Z 16006KT 19/18 A298 RMK A01 T01880178  RH  093%=      5-min Rain = 0
KCO2 201146Z 16006KT 19/18 A298 RMK A01 T01880177  RH  093%=      5-min Rain = 0
KCO2 201147Z 16007KT 19/18 A298 RMK A01 T01890178  RH  093%=      5-min Rain = 0
KCO2 201148Z 16006KT 19/18 A298 RMK A01 T01890178  RH  093%=      5-min Rain = 0
KCO2 201149Z 17006KT 19/18 A298 RMK A01 T01900179  RH  093%=      5-min Rain = 0
KCO2 201150Z 17006KT 19/18 A298 RMK A01 T01900179  RH  093%=      5-min Rain = 0
KCO2 201151Z 17007KT 19/18 A298 RMK A01 T01900179  RH  093%=      5-min Rain = 0
KCO2 201152Z 17007KT 19/18 A298 RMK A01 T01910179  RH  093%=      5-min Rain = 0
KCO2 201153Z 16007KT 19/18 A298 RMK A01 T01910179  RH  093%=      5-min Rain = 0
KCO2 201154Z 16007KT 19/18 A298 RMK A01 T01910180  RH  093%=      5-min Rain = 0
KCO2 201155Z 16007KT 19/18 A298 RMK A01 T01920180  RH  093%=      5-min Rain = 0
KCO2 201156Z 16007KT 19/18 A298 RMK A01 T01920180  RH  093%=      5-min Rain = 0
KCO2 201157Z 16007KT 19/18 A298 RMK A01 T01930181  RH  093%=      5-min Rain = 0
KCO2 201158Z 16007KT 19/18 A298 RMK A01 T01940182  RH  093%=      5-min Rain = 0
KCO2 201159Z 16007KT 20/18 A298 RMK A01 T01950183  RH  092%=      5-min Rain = 0
KCO2 201200Z 16007KT 20/18 A298 RMK A01 T01970183  RH  092%=      5-min Rain = 0
KCO2 201201Z 16007KT 20/18 A298 RMK A01 T01980184  RH  092%=      5-min Rain = 0
KCO2 201202Z 16007KT 20/18 A298 RMK A01 T01980183  RH  091%=      5-min Rain = 0
KCO2 201203Z 16006KT 20/18 A298 RMK A01 T01980183  RH  091%=      5-min Rain = 0
KCO2 201204Z 17006KT 20/18 A298 RMK A01 T01980184  RH  091%=      5-min Rain = 0
KCO2 201205Z 17006KT 20/18 A298 RMK A01 T01990183  RH  091%=      5-min Rain = 0
KCO2 201206Z 17006KT 20/18 A2981 RMK A01 T01990183  RH  091%=      5-min Rain = 0
KCO2 201207Z 17006KT 20/18 A2981 RMK A01 T01990183  RH  091%=      5-min Rain = 0
KCO2 201208Z 17006KT 20/18 A2981 RMK A01 T01990183  RH  091%=      5-min Rain = 0
KCO2 201209Z 17006KT 20/18 A2981 RMK A01 T01990183  RH  091%=      5-min Rain = 0
KCO2 201210Z 17006KT 20/18 A2981 RMK A01 T01980183  RH  091%=      5-min Rain = 0
KCO2 201211Z 17006KT 20/18 A2981 RMK A01 T01990183  RH  091%=      5-min Rain = 0
KCO2 201212Z 17007KT 20/18 A2981 RMK A01 T01990183  RH  091%=      5-min Rain = 0
KCO2 201213Z 17006KT 20/18 A2981 RMK A01 T01990184  RH  091%=      5-min Rain = 0
KCO2 201214Z 17006KT 20/18 A2981 RMK A01 T01990184  RH  091%=      5-min Rain = 0
KCO2 201215Z 17006KT 20/18 A2981 RMK A01 T01990184  RH  091%=      5-min Rain = 0
KCO2 201216Z 17006KT 20/19 A2981 RMK A01 T02000185  RH  091%=      5-min Rain = 0
KCO2 201217Z 17006KT 20/19 A2981 RMK A01 T02000185  RH  091%=      5-min Rain = 0
KCO2 201218Z 18006KT 20/19 A2981 RMK A01 T02010185  RH  091%=      5-min Rain = 0
KCO2 201219Z 18006KT 20/19 A2981 RMK A01 T02010185  RH  090%=      5-min Rain = 0
KCO2 201220Z 18006KT 20/19 A2981 RMK A01 T02020185  RH  090%=      5-min Rain = 0
KCO2 201221Z 18005KT 20/19 A2981 RMK A01 T02020185  RH  090%=      5-min Rain = 0
KCO2 201222Z 18006KT 20/19 A2981 RMK A01 T02020185  RH  090%=      5-min Rain = 0
KCO2 201223Z 18006KT 20/19 A2981 RMK A01 T02030185  RH  090%=      5-min Rain = 0
KCO2 201224Z 18005KT 20/19 A2981 RMK A01 T02030186  RH  090%=      5-min Rain = 0
KCO2 201225Z 18005KT 20/19 A2981 RMK A01 T02030186  RH  089%=      5-min Rain = 0
KCO2 201226Z 18005KT 20/19 A2981 RMK A01 T02040186  RH  089%=      5-min Rain = 0
KCO2 201227Z 18005KT 20/19 A2981 RMK A01 T02040186  RH  089%=      5-min Rain = 0
KCO2 201228Z 18005KT 20/19 A2981 RMK A01 T02040186  RH  089%=      5-min Rain = 0
KCO2 201229Z 18005KT 21/19 A2981 RMK A01 T02050187  RH  089%=      5-min Rain = 0
KCO2 201230Z 18005KT 21/19 A2981 RMK A01 T02050187  RH  089%=      5-min Rain = 0
KCO2 201231Z 18006KT 21/19 A2981 RMK A01 T02050186  RH  089%=      5-min Rain = 0
KCO2 201232Z 18005KT 21/19 A2981 RMK A01 T02060186  RH  089%=      5-min Rain = 0
KCO2 201233Z 18005KT 21/19 A2981 RMK A01 T02060187  RH  089%=      5-min Rain = 0
KCO2 201234Z 18005KT 21/19 A2981 RMK A01 T02060187  RH  089%=      5-min Rain = 0
KCO2 201235Z 18005KT 21/19 A2981 RMK A01 T02070187  RH  089%=      5-min Rain = 0
KCO2 201236Z 18005KT 21/19 A2981 RMK A01 T02070188  RH  088%=      5-min Rain = 0
KCO2 201237Z 18005KT 21/19 A2981 RMK A01 T02070187  RH  088%=      5-min Rain = 0
KCO2 201238Z 18005KT 21/19 A2981 RMK A01 T02080188  RH  088%=      5-min Rain = 0
KCO2 201239Z 18005KT 21/19 A2981 RMK A01 T02090188  RH  088%=      5-min Rain = 0
KCO2 201240Z 18005KT 21/19 A2981 RMK A01 T02090189  RH  088%=      5-min Rain = 0
KCO2 201241Z 18005KT 21/19 A2981 RMK A01 T02100189  RH  088%=      5-min Rain = 0
KCO2 201242Z 18005KT 21/19 A2981 RMK A01 T02100189  RH  088%=      5-min Rain = 0
KCO2 201243Z 18005KT 21/19 A2981 RMK A01 T02100189  RH  088%=      5-min Rain = 0
KCO2 201244Z 18005KT 21/19 A2981 RMK A01 T02110189  RH  087%=      5-min Rain = 0
KCO2 201245Z 18005KT 21/19 A2981 RMK A01 T02110190  RH  087%=      5-min Rain = 0
KCO2 201246Z 18005KT 21/19 A2981 RMK A01 T02120190  RH  087%=      5-min Rain = 0
KCO2 201247Z 18005KT 21/19 A2981 RMK A01 T02120190  RH  087%=      5-min Rain = 0
KCO2 201248Z 18005KT 21/19 A2981 RMK A01 T02130190  RH  087%=      5-min Rain = 0
KCO2 201249Z 18005KT 21/19 A2981 RMK A01 T02130191  RH  087%=      5-min Rain = 0
KCO2 201250Z 18006KT 21/19 A2981 RMK A01 T02140191  RH  087%=      5-min Rain = 0
KCO2 201251Z 18005KT 22/19 A2981 RMK A01 T02150191  RH  086%=      5-min Rain = 0
KCO2 201252Z 18005KT 22/19 A2981 RMK A01 T02160192  RH  086%=      5-min Rain = 0
KCO2 201253Z 18005KT 22/19 A2981 RMK A01 T02160193  RH  086%=      5-min Rain = 0
KCO2 201254Z 19005KT 22/19 A2981 RMK A01 T02170193  RH  086%=      5-min Rain = 0
KCO2 201255Z 18005KT 22/19 A2981 RMK A01 T02170193  RH  086%=      5-min Rain = 0
KCO2 201256Z 19004KT 22/19 A2981 RMK A01 T02180193  RH  086%=      5-min Rain = 0
KCO2 201257Z 19005KT 22/19 A2981 RMK A01 T02190193  RH  085%=      5-min Rain = 0
KCO2 201258Z 18005KT 22/19 A2981 RMK A01 T02190193  RH  085%=      5-min Rain = 0
KCO2 201259Z 19004KT 22/19 A2981 RMK A01 T02200194  RH  085%=      5-min Rain = 0
KCO2 201300Z 19005KT 22/19 A2981 RMK A01 T02210194  RH  085%=      5-min Rain = 0
KCO2 201301Z 18005KT 22/19 A2981 RMK A01 T02220194  RH  084%=      5-min Rain = 0
KCO2 201302Z 18005KT 22/20 A2981 RMK A01 T02230195  RH  084%=      5-min Rain = 0
KCO2 201303Z 19005KT 22/20 A2981 RMK A01 T02240195  RH  084%=      5-min Rain = 0
KCO2 201304Z 19006KT 22/20 A2981 RMK A01 T02240195  RH  083%=      5-min Rain = 0
KCO2 201305Z 19005KT 23/20 A2981 RMK A01 T02250195  RH  083%=      5-min Rain = 0
KCO2 201306Z 19005KT 23/20 A2981 RMK A01 T02260195  RH  083%=      5-min Rain = 0
KCO2 201307Z 19005KT 23/20 A2981 RMK A01 T02260195  RH  082%=      5-min Rain = 0
KCO2 201308Z 19005KT 23/20 A2981 RMK A01 T02270195  RH  082%=      5-min Rain = 0
KCO2 201309Z 18004KT 23/20 A2981 RMK A01 T02280197  RH  083%=      5-min Rain = 0
KCO2 201310Z 19005KT 23/20 A2981 RMK A01 T02280196  RH  082%=      5-min Rain = 0
KCO2 201311Z 19004KT 23/20 A2981 RMK A01 T02290197  RH  082%=      5-min Rain = 0
KCO2 201312Z 19005KT 23/20 A2981 RMK A01 T02300196  RH  081%=      5-min Rain = 0
KCO2 201313Z 19005KT 23/20 A2981 RMK A01 T02300195  RH  080%=      5-min Rain = 0
KCO2 201314Z 19004KT 23/20 A2981 RMK A01 T02310195  RH  080%=      5-min Rain = 0
KCO2 201315Z 19005KT 23/20 A2981 RMK A01 T02310195  RH  080%=      5-min Rain = 0
KCO2 201316Z 19005KT 23/20 A2981 RMK A01 T02320195  RH  080%=      5-min Rain = 0
KCO2 201317Z 19005KT 23/19 A2981 RMK A01 T02320194  RH  079%=      5-min Rain = 0
KCO2 201318Z 20004KT 23/19 A2981 RMK A01 T02320194  RH  079%=      5-min Rain = 0
KCO2 201319Z 20004KT 23/20 A2981 RMK A01 T02330196  RH  080%=      5-min Rain = 0
KCO2 201320Z 20004KT 23/20 A2981 RMK A01 T02340197  RH  080%=      5-min Rain = 0
KCO2 201321Z 20005KT 24/20 A2981 RMK A01 T02350195  RH  078%=      5-min Rain = 0
KCO2 201322Z 21004KT 24/19 A2981 RMK A01 T02350194  RH  078%=      5-min Rain = 0
KCO2 201323Z 20004KT 24/20 A2981 RMK A01 T02360196  RH  078%=      5-min Rain = 0
KCO2 201324Z 21004KT 24/20 A2981 RMK A01 T02360195  RH  077%=      5-min Rain = 0
KCO2 201325Z 21004KT 24/20 A2981 RMK A01 T02370197  RH  078%=      5-min Rain = 0
KCO2 201326Z 22006KT 24/19 A2981 RMK A01 T02380194  RH  077%=      5-min Rain = 0
KCO2 201327Z 22005KT 24/19 A2981 RMK A01 T02380189  RH  074%=      5-min Rain = 0
KCO2 201328Z 23005KT 24/19 A2981 RMK A01 T02390190  RH  074%=      5-min Rain = 0
KCO2 201329Z 21005KT 24/19 A2981 RMK A01 T02400193  RH  075%=      5-min Rain = 0
KCO2 201330Z 21005KT 24/19 A2981 RMK A01 T02400193  RH  075%=      5-min Rain = 0
KCO2 201331Z 21005KT 24/19 A2981 RMK A01 T02400192  RH  074%=      5-min Rain = 0
KCO2 201332Z 21004KT 24/19 A2981 RMK A01 T02400192  RH  074%=      5-min Rain = 0
KCO2 201333Z 22004KT 24/19 A2981 RMK A01 T02400192  RH  074%=      5-min Rain = 0
KCO2 201334Z 21004KT 24/19 A2982 RMK A01 T02410193  RH  075%=      5-min Rain = 0
KCO2 201335Z 20005KT 24/19 A2982 RMK A01 T02410193  RH  074%=      5-min Rain = 0
KCO2 201336Z 21004KT 24/20 A2982 RMK A01 T02420196  RH  075%=      5-min Rain = 0
KCO2 201337Z 20004KT 24/19 A2982 RMK A01 T02430193  RH  074%=      5-min Rain = 0
KCO2 201338Z 21005KT 24/19 A2982 RMK A01 T02440194  RH  074%=      5-min Rain = 0
KCO2 201339Z 21004KT 25/19 A2982 RMK A01 T02450191  RH  072%=      5-min Rain = 0
KCO2 201340Z 21005KT 25/20 A2982 RMK A01 T02450195  RH  073%=      5-min Rain = 0
KCO2 201341Z 21007KT 25/19 A2982 RMK A01 T02450192  RH  072%=      5-min Rain = 0
KCO2 201342Z 21007KT 25/19 A2982 RMK A01 T02460187  RH  070%=      5-min Rain = 0
KCO2 201343Z 21006KT 25/19 A2982 RMK A01 T02460190  RH  071%=      5-min Rain = 0
KCO2 201344Z 20006KT 25/19 A2982 RMK A01 T02460192  RH  072%=      5-min Rain = 0
KCO2 201345Z 21005KT 25/19 A2982 RMK A01 T02460192  RH  072%=      5-min Rain = 0
KCO2 201346Z 22005KT 25/19 A2982 RMK A01 T02470192  RH  072%=      5-min Rain = 0
KCO2 201347Z 22004KT 25/19 A2982 RMK A01 T02480194  RH  072%=      5-min Rain = 0
KCO2 201348Z 22005KT 25/19 A2982 RMK A01 T02480192  RH  071%=      5-min Rain = 0
KCO2 201349Z 23003KT 25/19 A2982 RMK A01 T02480191  RH  071%=      5-min Rain = 0
KCO2 201350Z 23005KT 25/20 A2982 RMK A01 T02490196  RH  072%=      5-min Rain = 0
KCO2 201351Z 22005KT 25/19 A2982 RMK A01 T02500194  RH  071%=      5-min Rain = 0
KCO2 201352Z 22004KT 25/19 A2982 RMK A01 T02500194  RH  071%=      5-min Rain = 0
KCO2 201353Z 23005KT 25/19 A2982 RMK A01 T02510194  RH  071%=      5-min Rain = 0
KCO2 201354Z 24005KT 25/19 A2982 RMK A01 T02510193  RH  070%=      5-min Rain = 0
KCO2 201355Z 23004KT 25/20 A2982 RMK A01 T02510196  RH  071%=      5-min Rain = 0
KCO2 201356Z 23005KT 25/20 A2982 RMK A01 T02520196  RH  071%=      5-min Rain = 0
KCO2 201357Z 23006KT 25/19 A2982 RMK A01 T02530191  RH  069%=      5-min Rain = 0
KCO2 201358Z 23004KT 25/20 A2982 RMK A01 T02540196  RH  071%=      5-min Rain = 0
KCO2 201359Z 23005KT 26/20 A2982 RMK A01 T02550196  RH  070%=      5-min Rain = 0
KCO2 201400Z 24006KT 26/20 A2982 RMK A01 T02560195  RH  069%=      5-min Rain = 0
KCO2 201401Z 24007KT 26/19 A2982 RMK A01 T02570193  RH  068%=      5-min Rain = 0
KCO2 201402Z 23006KT 26/19 A2982 RMK A01 T02570190  RH  067%=      5-min Rain = 0
KCO2 201403Z 24005KT 26/20 A2982 RMK A01 T02570195  RH  068%=      5-min Rain = 0
KCO2 201404Z 24007KT 26/20 A2982 RMK A01 T02580195  RH  068%=      5-min Rain = 0
KCO2 201405Z 23006KT 26/19 A2982 RMK A01 T02590194  RH  067%=      5-min Rain = 0
KCO2 201406Z 22006KT 26/19 A2982 RMK A01 T02590193  RH  067%=      5-min Rain = 0
KCO2 201407Z 23004KT 26/20 A2982 RMK A01 T02600196  RH  068%=      5-min Rain = 0
KCO2 201408Z 23005KT 26/20 A2982 RMK A01 T02610197  RH  067%=      5-min Rain = 0
KCO2 201409Z 23006KT 26/20 A2982 RMK A01 T02630196  RH  067%=      5-min Rain = 0
KCO2 201410Z 23004KT 26/19 A2982 RMK A01 T02630193  RH  065%=      5-min Rain = 0
KCO2 201411Z 23003KT 26/20 A2982 RMK A01 T02630199  RH  068%=      5-min Rain = 0
KCO2 201412Z 23005KT 27/20 A2982 RMK A01 T02650199  RH  067%=      5-min Rain = 0
KCO2 201413Z 23006KT 27/19 A2982 RMK A01 T02660194  RH  065%=      5-min Rain = 0
KCO2 201414Z 23006KT 27/19 A2982 RMK A01 T02660194  RH  065%=      5-min Rain = 0
KCO2 201415Z 23006KT 27/19 A2982 RMK A01 T02660193  RH  064%=      5-min Rain = 0
KCO2 201416Z 22005KT 27/19 A2982 RMK A01 T02660193  RH  064%=      5-min Rain = 0
KCO2 201417Z 22005KT 27/20 A2982 RMK A01 T02660195  RH  065%=      5-min Rain = 0
KCO2 201418Z 22005KT 27/19 A2982 RMK A01 T02660194  RH  065%=      5-min Rain = 0
KCO2 201419Z 22006KT 27/19 A2982 RMK A01 T02660192  RH  064%=      5-min Rain = 0
KCO2 201420Z 23006KT 27/20 A2982 RMK A01 T02670195  RH  065%=      5-min Rain = 0
KCO2 201421Z 23006KT 27/19 A2982 RMK A01 T02680193  RH  064%=      5-min Rain = 0
KCO2 201422Z 23006KT 27/19 A2982 RMK A01 T02680189  RH  062%=      5-min Rain = 0
KCO2 201423Z 24005KT 27/19 A2982 RMK A01 T02700193  RH  063%=      5-min Rain = 0
KCO2 201424Z 24005KT 27/20 A2982 RMK A01 T02710195  RH  063%=      5-min Rain = 0
KCO2 201425Z 23004KT 27/20 A2982 RMK A01 T02720197  RH  064%=      5-min Rain = 0
KCO2 201426Z 22005KT 27/20 A2982 RMK A01 T02730196  RH  063%=      5-min Rain = 0
KCO2 201427Z 22006KT 27/19 A2982 RMK A01 T02730192  RH  061%=      5-min Rain = 0
KCO2 201428Z 24005KT 27/19 A2982 RMK A01 T02730192  RH  061%=      5-min Rain = 0
KCO2 201429Z 24004KT 27/20 A2982 RMK A01 T02730196  RH  063%=      5-min Rain = 0
KCO2 201430Z 23005KT 28/19 A2982 RMK A01 T02750194  RH  061%=      5-min Rain = 0
KCO2 201431Z 22004KT 28/20 A2982 RMK A01 T02760195  RH  062%=      5-min Rain = 0
KCO2 201432Z 22003KT 28/20 A2982 RMK A01 T02770199  RH  062%=      5-min Rain = 0
KCO2 201433Z 24005KT 28/20 A2982 RMK A01 T02790196  RH  060%=      5-min Rain = 0
KCO2 201434Z 23005KT 28/19 A2982 RMK A01 T02800191  RH  059%=      5-min Rain = 0
KCO2 201435Z 22005KT 28/19 A2982 RMK A01 T02800194  RH  059%=      5-min Rain = 0
KCO2 201436Z 22007KT 28/19 A2982 RMK A01 T02800189  RH  058%=      5-min Rain = 0
KCO2 201437Z 22007KT 28/19 A2982 RMK A01 T02800189  RH  058%=      5-min Rain = 0
KCO2 201438Z 23007KT 28/18 A2982 RMK A01 T02810184  RH  056%=      5-min Rain = 0
KCO2 201439Z 24005KT 28/19 A2982 RMK A01 T02810187  RH  057%=      5-min Rain = 0
KCO2 201440Z 24005KT 28/19 A2982 RMK A01 T02820189  RH  057%=      5-min Rain = 0
KCO2 201441Z 23005KT 28/20 A2982 RMK A01 T02830196  RH  059%=      5-min Rain = 0
KCO2 201442Z 23006KT 29/19 A2982 RMK A01 T02850191  RH  057%=      5-min Rain = 0
KCO2 201443Z 22006KT 29/19 A2982 RMK A01 T02860189  RH  056%=      5-min Rain = 0
KCO2 201444Z 23004KT 29/19 A2982 RMK A01 T02870193  RH  057%=      5-min Rain = 0
KCO2 201445Z 24004KT 29/19 A2982 RMK A01 T02880193  RH  056%=      5-min Rain = 0
KCO2 201446Z 23004KT 29/19 A2982 RMK A01 T02890194  RH  056%=      5-min Rain = 0
KCO2 201447Z 23006KT 29/19 A2982 RMK A01 T02900190  RH  055%=      5-min Rain = 0
KCO2 201448Z 24007KT 29/18 A2982 RMK A01 T02910183  RH  052%=      5-min Rain = 0
KCO2 201449Z 24006KT 29/18 A2982 RMK A01 T02910181  RH  052%=      5-min Rain = 0
KCO2 201450Z 23005KT 29/19 A2982 RMK A01 T02900188  RH  054%=      5-min Rain = 0
KCO2 201451Z 22006KT 29/19 A2982 RMK A01 T02910187  RH  053%=      5-min Rain = 0
KCO2 201452Z 24005KT 29/19 A2982 RMK A01 T02920185  RH  053%=      5-min Rain = 0
KCO2 201453Z 24005KT 29/19 A2982 RMK A01 T02920191  RH  054%=      5-min Rain = 0
KCO2 201454Z 24005KT 29/19 A2982 RMK A01 T02940188  RH  053%=      5-min Rain = 0
KCO2 201455Z 24006KT 30/19 A2982 RMK A01 T02950185  RH  052%=      5-min Rain = 0
KCO2 201456Z 23005KT 30/19 A2982 RMK A01 T02950188  RH  053%=      5-min Rain = 0
KCO2 201457Z 22005KT 30/18 A2982 RMK A01 T02950184  RH  051%=      5-min Rain = 0
KCO2 201458Z 23005KT 30/19 A2982 RMK A01 T02960192  RH  053%=      5-min Rain = 0
KCO2 201459Z 23004KT 30/19 A2982 RMK A01 T02970187  RH  052%=      5-min Rain = 0
KCO2 201500Z 23005KT 30/19 A2982 RMK A01 T02980188  RH  052%=      5-min Rain = 0
KCO2 201501Z 23007KT 30/19 A2982 RMK A01 T02980186  RH  051%=      5-min Rain = 0
KCO2 201502Z 24008KT 30/18 A2982 RMK A01 T02990181  RH  049%=      5-min Rain = 0
KCO2 201503Z 23009KT 30/18 A2982 RMK A01 T02990177  RH  048%=      5-min Rain = 0
KCO2 201504Z 22009KT 30/18 A2982 RMK A01 T03000176  RH  047%=      5-min Rain = 0
KCO2 201505Z 21008KT 30/17 A2982 RMK A01 T03010167  RH  045%=      5-min Rain = 0
KCO2 201506Z 23009KT 30/17 A2982 RMK A01 T03010165  RH  044%=      5-min Rain = 0
KCO2 201507Z 22008KT 30/17 A2982 RMK A01 T03020169  RH  045%=      5-min Rain = 0
KCO2 201508Z 23008KT 30/17 A2982 RMK A01 T03030165  RH  044%=      5-min Rain = 0
KCO2 201509Z 23009G14KT 30/17 A2982 RMK A01 T03030167  RH  044%=      5-min Rain = 0
KCO2 201510Z 23009KT 30/16 A2982 RMK A01 T03040164  RH  043%=      5-min Rain = 0
KCO2 201511Z 24009KT 31/16 A2982 RMK A01 T03050161  RH  042%=      5-min Rain = 0
KCO2 201512Z 22006KT 31/17 A2982 RMK A01 T03050166  RH  043%=      5-min Rain = 0
KCO2 201513Z 23007KT 31/17 A2982 RMK A01 T03060172  RH  044%=      5-min Rain = 0
KCO2 201514Z 23008KT 31/16 A2982 RMK A01 T03070162  RH  042%=      5-min Rain = 0
KCO2 201515Z 23008KT 31/16 A2982 RMK A01 T03070162  RH  041%=      5-min Rain = 0
KCO2 201516Z 23010KT 31/16 A2982 RMK A01 T03080157  RH  040%=      5-min Rain = 0
KCO2 201517Z 23009KT 31/16 A2982 RMK A01 T03080161  RH  041%=      5-min Rain = 0
KCO2 201518Z 23009KT 31/16 A2982 RMK A01 T03080161  RH  041%=      5-min Rain = 0
KCO2 201519Z 23007KT 31/16 A2982 RMK A01 T03090161  RH  041%=      5-min Rain = 0
KCO2 201520Z 22006KT 31/17 A2982 RMK A01 T03100169  RH  043%=      5-min Rain = 0
KCO2 201521Z 22008KT 31/17 A2982 RMK A01 T03110170  RH  043%=      5-min Rain = 0
KCO2 201522Z 22007KT 31/17 A2982 RMK A01 T03120169  RH  042%=      5-min Rain = 0
KCO2 201523Z 23008KT 31/17 A2982 RMK A01 T03140169  RH  042%=      5-min Rain = 0
KCO2 201524Z 22008KT 31/16 A2982 RMK A01 T03140164  RH  041%=      5-min Rain = 0
KCO2 201525Z 23009KT 31/16 A2982 RMK A01 T03140157  RH  039%=      5-min Rain = 0
KCO2 201526Z 23009KT 32/16 A2982 RMK A01 T03150160  RH  039%=      5-min Rain = 0
KCO2 201527Z 22007KT 31/16 A2982 RMK A01 T03140159  RH  039%=      5-min Rain = 0
KCO2 201528Z 23008KT 32/16 A2982 RMK A01 T03150161  RH  040%=      5-min Rain = 0
KCO2 201529Z 23008KT 32/16 A2982 RMK A01 T03160160  RH  039%=      5-min Rain = 0
KCO2 201530Z 23008KT 32/16 A2982 RMK A01 T03160160  RH  039%=      5-min Rain = 0
KCO2 201531Z 22006KT 32/17 A2982 RMK A01 T03170172  RH  042%=      5-min Rain = 0
KCO2 201532Z 22007KT 32/17 A2982 RMK A01 T03180165  RH  040%=      5-min Rain = 0
KCO2 201533Z 23010KT 32/15 A2982 RMK A01 T03190153  RH  037%=      5-min Rain = 0
KCO2 201534Z 22009KT 32/15 A2982 RMK A01 T03190153  RH  037%=      5-min Rain = 0
KCO2 201535Z 23009KT 32/15 A2982 RMK A01 T03190152  RH  037%=      5-min Rain = 0
KCO2 201536Z 22008KT 32/15 A2982 RMK A01 T03190153  RH  037%=      5-min Rain = 0
KCO2 201537Z 22008KT 32/16 A2982 RMK A01 T03200156  RH  037%=      5-min Rain = 0
KCO2 201538Z 22009KT 32/16 A2982 RMK A01 T03200157  RH  037%=      5-min Rain = 0
KCO2 201539Z 23008KT 32/15 A2982 RMK A01 T03210152  RH  036%=      5-min Rain = 0
KCO2 201540Z 22008KT 32/15 A2982 RMK A01 T03210148  RH  035%=      5-min Rain = 0
KCO2 201541Z 22008KT 32/15 A2982 RMK A01 T03220151  RH  036%=      5-min Rain = 0
KCO2 201542Z 22008KT 32/15 A2982 RMK A01 T03220154  RH  036%=      5-min Rain = 0
KCO2 201543Z 22010KT 32/15 A2982 RMK A01 T03230147  RH  035%=      5-min Rain = 0
KCO2 201544Z 21009KT 32/15 A2982 RMK A01 T03230147  RH  034%=      5-min Rain = 0
KCO2 201545Z 22008KT 32/15 A2982 RMK A01 T03230147  RH  034%=      5-min Rain = 0
KCO2 201546Z 22008KT 32/15 A2982 RMK A01 T03240154  RH  036%=      5-min Rain = 0
KCO2 201547Z 22008KT 33/15 A2982 RMK A01 T03250150  RH  035%=      5-min Rain = 0
KCO2 201548Z 21008KT 33/15 A2982 RMK A01 T03250147  RH  034%=      5-min Rain = 0
KCO2 201549Z 23007KT 33/15 A2982 RMK A01 T03260153  RH  035%=      5-min Rain = 0
KCO2 201550Z 23009KT 33/16 A2982 RMK A01 T03260157  RH  036%=      5-min Rain = 0
KCO2 201551Z 24008KT 33/14 A2982 RMK A01 T03270144  RH  033%=      5-min Rain = 0
KCO2 201552Z 23007KT 33/15 A2981 RMK A01 T03280148  RH  034%=      5-min Rain = 0
KCO2 201553Z 24006KT 33/15 A2981 RMK A01 T03280154  RH  035%=      5-min Rain = 0
KCO2 201554Z 23006KT 33/16 A2981 RMK A01 T03290160  RH  036%=      5-min Rain = 0
KCO2 201555Z 22006KT 33/16 A2981 RMK A01 T03310158  RH  035%=      5-min Rain = 0
KCO2 201556Z 21007KT 33/15 A2981 RMK A01 T03310153  RH  034%=      5-min Rain = 0
KCO2 201557Z 21008KT 33/15 A2981 RMK A01 T03320154  RH  034%=      5-min Rain = 0
KCO2 201558Z 22007KT 33/16 A2981 RMK A01 T03320155  RH  035%=      5-min Rain = 0
KCO2 201559Z 23006KT 33/15 A2981 RMK A01 T03320151  RH  034%=      5-min Rain = 0
KCO2 201600Z 23005KT 33/16 A2981 RMK A01 T03320158  RH  035%=      5-min Rain = 0
KCO2 201601Z 24006KT 33/15 A2981 RMK A01 T03340152  RH  034%=      5-min Rain = 0
KCO2 201602Z 24006KT 33/14 A2981 RMK A01 T03340144  RH  032%=      5-min Rain = 0
KCO2 201603Z 24007KT 33/15 A2981 RMK A01 T03340150  RH  033%=      5-min Rain = 0
KCO2 201604Z 24007KT 34/15 A2981 RMK A01 T03350146  RH  032%=      5-min Rain = 0
KCO2 201605Z 24006KT 34/15 A2981 RMK A01 T03350152  RH  033%=      5-min Rain = 0
KCO2 201606Z 23006KT 34/15 A2981 RMK A01 T03360148  RH  032%=      5-min Rain = 0
KCO2 201607Z 24006KT 34/15 A2981 RMK A01 T03360151  RH  033%=      5-min Rain = 0
KCO2 201608Z 23007KT 34/14 A2981 RMK A01 T03370143  RH  031%=      5-min Rain = 0
KCO2 201609Z 23007KT 34/14 A2981 RMK A01 T03370141  RH  031%=      5-min Rain = 0
KCO2 201610Z 23006KT 34/14 A2981 RMK A01 T03380144  RH  031%=      5-min Rain = 0
KCO2 201611Z 23005KT 34/14 A2981 RMK A01 T03380144  RH  031%=      5-min Rain = 0
KCO2 201612Z 23006KT 34/16 A2981 RMK A01 T03380157  RH  034%=      5-min Rain = 0
KCO2 201613Z 23007KT 34/14 A2981 RMK A01 T03400141  RH  030%=      5-min Rain = 0
KCO2 201614Z 23007KT 34/15 A2981 RMK A01 T03400146  RH  031%=      5-min Rain = 0
KCO2 201615Z 22007KT 34/14 A2981 RMK A01 T03400143  RH  031%=      5-min Rain = 0
KCO2 201616Z 22006KT 34/15 A2981 RMK A01 T03400153  RH  033%=      5-min Rain = 0
KCO2 201617Z 23007KT 34/15 A2981 RMK A01 T03410146  RH  031%=      5-min Rain = 0
KCO2 201618Z 24006KT 34/15 A2981 RMK A01 T03420148  RH  031%=      5-min Rain = 0
KCO2 201619Z 22006KT 34/15 A2981 RMK A01 T03430146  RH  031%=      5-min Rain = 0
KCO2 201620Z 21006KT 34/15 A2981 RMK A01 T03430147  RH  031%=      5-min Rain = 0
KCO2 201621Z 22006KT 34/15 A2981 RMK A01 T03430147  RH  031%=      5-min Rain = 0
KCO2 201622Z 22004KT 34/15 A2981 RMK A01 T03430149  RH  031%=      5-min Rain = 0
KCO2 201623Z 24006KT 34/16 A2981 RMK A01 T03440163  RH  034%=      5-min Rain = 0
KCO2 201624Z 23008KT 35/15 A2981 RMK A01 T03460151  RH  031%=      5-min Rain = 0
KCO2 201625Z 24008KT 35/14 A2981 RMK A01 T03460139  RH  029%=      5-min Rain = 0
KCO2 201626Z 24006KT 35/14 A2981 RMK A01 T03460144  RH  030%=      5-min Rain = 0
KCO2 201627Z 24007KT 35/14 A2981 RMK A01 T03460142  RH  029%=      5-min Rain = 0
KCO2 201628Z 24007KT 35/14 A2981 RMK A01 T03460139  RH  029%=      5-min Rain = 0
KCO2 201629Z 25005KT 35/14 A2981 RMK A01 T03460144  RH  030%=      5-min Rain = 0
KCO2 201630Z 25007KT 35/15 A2981 RMK A01 T03460152  RH  031%=      5-min Rain = 0
KCO2 201631Z 26006KT 35/15 A2981 RMK A01 T03470154  RH  032%=      5-min Rain = 0
KCO2 201632Z 24008KT 35/15 A2981 RMK A01 T03480152  RH  031%=      5-min Rain = 0
KCO2 201633Z 23006KT 35/15 A2981 RMK A01 T03480148  RH  030%=      5-min Rain = 0
KCO2 201634Z 24006KT 35/14 A2981 RMK A01 T03480140  RH  029%=      5-min Rain = 0
KCO2 201635Z 22005KT 35/15 A2981 RMK A01 T03480147  RH  030%=      5-min Rain = 0
KCO2 201636Z 25006KT 35/15 A2981 RMK A01 T03490147  RH  030%=      5-min Rain = 0
KCO2 201637Z 25006KT 35/15 A2981 RMK A01 T03500145  RH  029%=      5-min Rain = 0
KCO2 201638Z 24007KT 35/14 A2981 RMK A01 T03500137  RH  028%=      5-min Rain = 0
KCO2 201639Z 24009KT 35/14 A2981 RMK A01 T03500141  RH  029%=      5-min Rain = 0
KCO2 201640Z 23008KT 35/14 A2981 RMK A01 T03490135  RH  028%=      5-min Rain = 0
KCO2 201641Z 23009KT 35/14 A2981 RMK A01 T03490136  RH  028%=      5-min Rain = 0
KCO2 201642Z 24008KT 35/14 A2981 RMK A01 T03500138  RH  028%=      5-min Rain = 0
KCO2 201643Z 23006KT 35/13 A2981 RMK A01 T03500130  RH  026%=      5-min Rain = 0
KCO2 201644Z 23008KT 35/14 A2981 RMK A01 T03510135  RH  027%=      5-min Rain = 0
KCO2 201645Z 24007KT 35/14 A2981 RMK A01 T03510139  RH  028%=      5-min Rain = 0
KCO2 201646Z 24008KT 35/14 A2981 RMK A01 T03530136  RH  027%=      5-min Rain = 0
KCO2 201647Z 23008KT 35/13 A2981 RMK A01 T03530128  RH  026%=      5-min Rain = 0
KCO2 201648Z 21007KT 35/13 A2981 RMK A01 T03530133  RH  027%=      5-min Rain = 0
KCO2 201649Z 22007KT 35/15 A2981 RMK A01 T03540146  RH  029%=      5-min Rain = 0
KCO2 201650Z 22007KT 36/14 A2981 RMK A01 T03550141  RH  028%=      5-min Rain = 0
KCO2 201651Z 22006KT 36/15 A2981 RMK A01 T03560151  RH  029%=      5-min Rain = 0
KCO2 201652Z 22006KT 36/15 A2981 RMK A01 T03580146  RH  028%=      5-min Rain = 0
KCO2 201653Z 22009KT 36/14 A2981 RMK A01 T03580141  RH  027%=      5-min Rain = 0
KCO2 201654Z 22007KT 36/13 A2981 RMK A01 T03580130  RH  025%=      5-min Rain = 0
KCO2 201655Z 22008KT 36/14 A2981 RMK A01 T03570137  RH  027%=      5-min Rain = 0
KCO2 201656Z 22008KT 36/13 A2981 RMK A01 T03570134  RH  026%=      5-min Rain = 0
KCO2 201657Z 22007KT 36/14 A2981 RMK A01 T03570137  RH  027%=      5-min Rain = 0
KCO2 201658Z 22005KT 36/14 A2981 RMK A01 T03580144  RH  028%=      5-min Rain = 0
KCO2 201659Z 23007KT 36/15 A2981 RMK A01 T03590149  RH  029%=      5-min Rain = 0
KCO2 201700Z 23008KT 36/14 A2981 RMK A01 T03610144  RH  028%=      5-min Rain = 0
KCO2 201701Z 23008KT 36/12 A2981 RMK A01 T03610121  RH  024%=      5-min Rain = 0
KCO2 201702Z 22007KT 36/13 A2981 RMK A01 T03610131  RH  025%=      5-min Rain = 0
KCO2 201703Z 21005KT 36/13 A2981 RMK A01 T03600133  RH  026%=      5-min Rain = 0
KCO2 201704Z 24006KT 36/14 A2981 RMK A01 T03610144  RH  027%=      5-min Rain = 0
KCO2 201705Z 25009KT 36/14 A2981 RMK A01 T03620143  RH  027%=      5-min Rain = 0
KCO2 201706Z 25008KT 36/12 A2981 RMK A01 T03620124  RH  024%=      5-min Rain = 0
KCO2 201707Z 24007KT 36/13 A2981 RMK A01 T03610130  RH  025%=      5-min Rain = 0
KCO2 201708Z 24006KT 36/12 A2981 RMK A01 T03610123  RH  024%=      5-min Rain = 0
KCO2 201709Z 26007KT 36/13 A2981 RMK A01 T03610125  RH  024%=      5-min Rain = 0
KCO2 201710Z 25006KT 36/14 A2981 RMK A01 T03610135  RH  026%=      5-min Rain = 0
KCO2 201711Z 26007KT 36/13 A2981 RMK A01 T03620132  RH  025%=      5-min Rain = 0
KCO2 201712Z 26007KT 36/14 A2981 RMK A01 T03620139  RH  026%=      5-min Rain = 0
KCO2 201713Z 26007KT 36/13 A2981 RMK A01 T03620131  RH  025%=      5-min Rain = 0
KCO2 201714Z 23007KT 36/14 A2981 RMK A01 T03620140  RH  027%=      5-min Rain = 0
KCO2 201715Z 22008KT 36/12 A2981 RMK A01 T03630122  RH  023%=      5-min Rain = 0
KCO2 201716Z 21006KT 36/13 A2981 RMK A01 T03640130  RH  025%=      5-min Rain = 0
KCO2 201717Z 22006KT 37/13 A2981 RMK A01 T03650134  RH  025%=      5-min Rain = 0
KCO2 201718Z 21007KT 37/14 A2981 RMK A01 T03660135  RH  025%=      5-min Rain = 0
KCO2 201719Z 22006KT 37/12 A2981 RMK A01 T03670121  RH  023%=      5-min Rain = 0
KCO2 201720Z 24008KT 37/13 A2981 RMK A01 T03660133  RH  025%=      5-min Rain = 0
KCO2 201721Z 24010KT 37/12 A2981 RMK A01 T03660123  RH  023%=      5-min Rain = 0
KCO2 201722Z 24008KT 37/12 A2981 RMK A01 T03660121  RH  023%=      5-min Rain = 0
KCO2 201723Z 24006KT 37/13 A2981 RMK A01 T03660127  RH  024%=      5-min Rain = 0
KCO2 201724Z 23006KT 37/14 A2981 RMK A01 T03670141  RH  026%=      5-min Rain = 0
KCO2 201725Z 23006KT 37/14 A2981 RMK A01 T03680136  RH  025%=      5-min Rain = 0
KCO2 201726Z 22008KT 37/13 A2981 RMK A01 T03690131  RH  024%=      5-min Rain = 0
KCO2 201727Z 23008KT 37/12 A2981 RMK A01 T03700123  RH  023%=      5-min Rain = 0
KCO2 201728Z 23006KT 37/12 A2981 RMK A01 T03700122  RH  023%=      5-min Rain = 0
KCO2 201729Z 24006KT 37/14 A2981 RMK A01 T03700141  RH  026%=      5-min Rain = 0
KCO2 201730Z 25008KT 37/14 A2981 RMK A01 T03710135  RH  024%=      5-min Rain = 0
KCO2 201731Z 25009KT 37/13 A2981 RMK A01 T03710130  RH  024%=      5-min Rain = 0
KCO2 201732Z 24007KT 37/12 A2981 RMK A01 T03710124  RH  023%=      5-min Rain = 0
KCO2 201733Z 24008KT 37/13 A2981 RMK A01 T03700127  RH  023%=      5-min Rain = 0
KCO2 201734Z 24005KT 37/12 A2981 RMK A01 T03700118  RH  022%=      5-min Rain = 0
KCO2 201735Z 24008KT 37/13 A2981 RMK A01 T03700126  RH  023%=      5-min Rain = 0
KCO2 201736Z 24007KT 37/13 A2981 RMK A01 T03710128  RH  023%=      5-min Rain = 0
KCO2 201737Z 24007KT 37/13 A2981 RMK A01 T03710128  RH  023%=      5-min Rain = 0
KCO2 201738Z 25005KT 37/13 A2981 RMK A01 T03710130  RH  024%=      5-min Rain = 0
KCO2 201739Z 25005KT 37/14 A2981 RMK A01 T03730139  RH  025%=      5-min Rain = 0
KCO2 201740Z 23006KT 38/14 A2981 RMK A01 T03750139  RH  025%=      5-min Rain = 0
KCO2 201741Z 21009KT 38/13 A2981 RMK A01 T03770133  RH  024%=      5-min Rain = 0
KCO2 201742Z 21010KT 38/11 A2981 RMK A01 T03780108  RH  020%=      5-min Rain = 0
KCO2 201743Z 21007KT 38/11 A2981 RMK A01 T03770111  RH  020%=      5-min Rain = 0
KCO2 201744Z 23007KT 38/11 A2981 RMK A01 T03760113  RH  021%=      5-min Rain = 0
KCO2 201745Z 23008KT 38/11 A2981 RMK A01 T03760109  RH  020%=      5-min Rain = 0
KCO2 201746Z 23006KT 38/11 A298 RMK A01 T03760114  RH  021%=      5-min Rain = 0
KCO2 201747Z 24006KT 38/11 A298 RMK A01 T03760111  RH  020%=      5-min Rain = 0
KCO2 201748Z 22006KT 38/12 A298 RMK A01 T03760124  RH  022%=      5-min Rain = 0
KCO2 201749Z 22006KT 38/14 A298 RMK A01 T03770136  RH  024%=      5-min Rain = 0
KCO2 201750Z 23006KT 38/13 A298 RMK A01 T03790133  RH  023%=      5-min Rain = 0
KCO2 201751Z 22004KT 38/14 A298 RMK A01 T03790143  RH  025%=      5-min Rain = 0
KCO2 201752Z 21007KT 38/13 A298 RMK A01 T03800129  RH  022%=      5-min Rain = 0
KCO2 201753Z 21008KT 38/12 A298 RMK A01 T03790119  RH  021%=      5-min Rain = 0
KCO2 201754Z 21006KT 38/12 A298 RMK A01 T03780118  RH  021%=      5-min Rain = 0
KCO2 201755Z 22007KT 38/13 A298 RMK A01 T03770130  RH  023%=      5-min Rain = 0
KCO2 201756Z 23006KT 38/11 A298 RMK A01 T03780108  RH  020%=      5-min Rain = 0
KCO2 201757Z 21008KT 38/12 A298 RMK A01 T03790122  RH  022%=      5-min Rain = 0
KCO2 201758Z 20008KT 38/10 A298 RMK A01 T03800101  RH  019%=      5-min Rain = 0
KCO2 201759Z 24007KT 38/12 A298 RMK A01 T03810121  RH  021%=      5-min Rain = 0
KCO2 201800Z 24007KT 38/11 A298 RMK A01 T03810113  RH  020%=      5-min Rain = 0
KCO2 201801Z 26005KT 38/13 A298 RMK A01 T03800127  RH  022%=      5-min Rain = 0
KCO2 201802Z 24007KT 38/14 A298 RMK A01 T03810136  RH  023%=      5-min Rain = 0
KCO2 201803Z 24009KT 38/12 A298 RMK A01 T03830117  RH  020%=      5-min Rain = 0
KCO2 201804Z 23008KT 38/11 A298 RMK A01 T03830113  RH  020%=      5-min Rain = 0
KCO2 201805Z 21007KT 38/09 A298 RMK A01 T03830093  RH  017%=      5-min Rain = 0
KCO2 201806Z 23006KT 38/12 A298 RMK A01 T03830118  RH  021%=      5-min Rain = 0
KCO2 201807Z 25008KT 38/11 A298 RMK A01 T03830106  RH  019%=      5-min Rain = 0
KCO2 201808Z 25007KT 38/10 A298 RMK A01 T03830099  RH  018%=      5-min Rain = 0
KCO2 201809Z 24006KT 38/11 A298 RMK A01 T03830113  RH  020%=      5-min Rain = 0
KCO2 201810Z 24007KT 38/12 A298 RMK A01 T03830116  RH  020%=      5-min Rain = 0
KCO2 201811Z 22008KT 38/12 A298 RMK A01 T03840116  RH  020%=      5-min Rain = 0
KCO2 201812Z 21005KT 38/09 A298 RMK A01 T03840093  RH  017%=      5-min Rain = 0
KCO2 201813Z 18006KT 38/11 A298 RMK A01 T03830108  RH  019%=      5-min Rain = 0
KCO2 201814Z 20005KT 38/11 A2979 RMK A01 T03830110  RH  020%=      5-min Rain = 0
KCO2 201815Z 21006KT 38/13 A2979 RMK A01 T03840125  RH  021%=      5-min Rain = 0
KCO2 201816Z 25007KT 39/13 A298 RMK A01 T03850127  RH  022%=      5-min Rain = 0
KCO2 201817Z 22006KT 39/13 A298 RMK A01 T03860131  RH  022%=      5-min Rain = 0
KCO2 201818Z 24005KT 39/13 A2979 RMK A01 T03880131  RH  022%=      5-min Rain = 0
KCO2 201819Z 24005KT 39/13 A2979 RMK A01 T03890131  RH  022%=      5-min Rain = 0
KCO2 201820Z 24004KT 39/12 A2979 RMK A01 T03900117  RH  020%=      5-min Rain = 0
KCO2 201821Z 21006KT 39/12 A2979 RMK A01 T03900120  RH  020%=      5-min Rain = 0
KCO2 201822Z 22007KT 39/11 A2979 RMK A01 T03900106  RH  018%=      5-min Rain = 0
KCO2 201823Z 21005KT 39/09 A2979 RMK A01 T03900086  RH  016%=      5-min Rain = 0
KCO2 201824Z 23006KT 39/10 A2979 RMK A01 T03910101  RH  018%=      5-min Rain = 0
KCO2 201825Z 22010KT 39/09 A2979 RMK A01 T03910091  RH  016%=      5-min Rain = 0
KCO2 201826Z 22011KT 39/09 A2979 RMK A01 T03910091  RH  016%=      5-min Rain = 0
KCO2 201827Z 22012KT 39/08 A2979 RMK A01 T03910078  RH  015%=      5-min Rain = 0
KCO2 201828Z 22011KT 39/08 A2979 RMK A01 T03890081  RH  015%=      5-min Rain = 0
KCO2 201829Z 23012KT 39/08 A2979 RMK A01 T03890083  RH  016%=      5-min Rain = 0
KCO2 201830Z 24011G16KT 39/09 A2979 RMK A01 T03890087  RH  016%=      5-min Rain = 0
KCO2 201831Z 24010KT 39/06 A2979 RMK A01 T03890060  RH  013%=      5-min Rain = 0
KCO2 201832Z 23007KT 39/08 A2979 RMK A01 T03890076  RH  015%=      5-min Rain = 0
KCO2 201833Z 22007KT 39/08 A2979 RMK A01 T03900079  RH  015%=      5-min Rain = 0
KCO2 201834Z 22007KT 39/08 A2979 RMK A01 T03910084  RH  016%=      5-min Rain = 0
KCO2 201835Z 22007KT 39/07 A2979 RMK A01 T03910067  RH  014%=      5-min Rain = 0
KCO2 201836Z 21009KT 39/08 A2979 RMK A01 T03910081  RH  015%=      5-min Rain = 0
KCO2 201837Z 19010G16KT 39/09 A2979 RMK A01 T03920089  RH  016%=      5-min Rain = 0
KCO2 201838Z 20015KT 39/08 A2979 RMK A01 T03920078  RH  015%=      5-min Rain = 0
KCO2 201839Z 20012KT 39/07 A2979 RMK A01 T03900067  RH  014%=      5-min Rain = 0
KCO2 201840Z 19011KT 39/07 A2979 RMK A01 T03890070  RH  014%=      5-min Rain = 0
KCO2 201841Z 19009KT 39/08 A2979 RMK A01 T03880077  RH  015%=      5-min Rain = 0
KCO2 201842Z 19010KT 39/07 A2979 RMK A01 T03890072  RH  015%=      5-min Rain = 0
KCO2 201843Z 20011KT 39/07 A2979 RMK A01 T03890068  RH  014%=      5-min Rain = 0
KCO2 201844Z 19010KT 39/08 A2979 RMK A01 T03890079  RH  015%=      5-min Rain = 0
KCO2 201845Z 19009KT 39/08 A2979 RMK A01 T03900084  RH  016%=      5-min Rain = 0
KCO2 201846Z 19007KT 39/08 A2979 RMK A01 T03900075  RH  015%=      5-min Rain = 0
KCO2 201847Z 21006KT 39/09 A2979 RMK A01 T03910085  RH  016%=      5-min Rain = 0
KCO2 201848Z 22007KT 39/08 A2979 RMK A01 T03920083  RH  016%=      5-min Rain = 0
KCO2 201849Z 21009KT 39/08 A2979 RMK A01 T03930077  RH  015%=      5-min Rain = 0
KCO2 201850Z 23010KT 39/08 A2979 RMK A01 T03930079  RH  015%=      5-min Rain = 0
KCO2 201851Z 22012KT 39/07 A2979 RMK A01 T03930068  RH  014%=      5-min Rain = 0
KCO2 201852Z 21012KT 39/07 A2979 RMK A01 T03930067  RH  014%=      5-min Rain = 0
KCO2 201853Z 22011KT 39/07 A2979 RMK A01 T03920065  RH  014%=      5-min Rain = 0
KCO2 201854Z 21013KT 39/07 A2979 RMK A01 T03910071  RH  014%=      5-min Rain = 0
KCO2 201855Z 21012KT 39/07 A2979 RMK A01 T03910071  RH  014%=      5-min Rain = 0
KCO2 201856Z 21014KT 39/07 A2979 RMK A01 T03910069  RH  014%=      5-min Rain = 0
KCO2 201857Z 21012KT 39/07 A2979 RMK A01 T03910065  RH  014%=      5-min Rain = 0
KCO2 201858Z 20009KT 39/08 A2979 RMK A01 T03910078  RH  015%=      5-min Rain = 0
KCO2 201859Z 21010KT 39/08 A2979 RMK A01 T03910079  RH  015%=      5-min Rain = 0
KCO2 201900Z 21008KT 39/08 A2979 RMK A01 T03920075  RH  015%=      5-min Rain = 0
KCO2 201901Z 21008KT 39/08 A2978 RMK A01 T03920080  RH  015%=      5-min Rain = 0
KCO2 201902Z 21010KT 39/08 A2978 RMK A01 T03930075  RH  015%=      5-min Rain = 0
KCO2 201903Z 19008KT 39/08 A2978 RMK A01 T03940080  RH  015%=      5-min Rain = 0
KCO2 201904Z 19011KT 39/09 A2978 RMK A01 T03940091  RH  016%=      5-min Rain = 0
KCO2 201905Z 18011KT 39/06 A2978 RMK A01 T03940059  RH  013%=      5-min Rain = 0
KCO2 201906Z 18010KT 39/06 A2978 RMK A01 T03930058  RH  013%=      5-min Rain = 0
KCO2 201907Z 19006KT 39/07 A2978 RMK A01 T03920067  RH  014%=      5-min Rain = 0
KCO2 201908Z 21008KT 39/08 A2978 RMK A01 T03920079  RH  015%=      5-min Rain = 0
KCO2 201909Z 22011KT 39/08 A2978 RMK A01 T03940082  RH  015%=      5-min Rain = 0
KCO2 201910Z 21012KT 39/07 A2978 RMK A01 T03940066  RH  014%=      5-min Rain = 0
KCO2 201911Z 20010KT 39/07 A2978 RMK A01 T03940068  RH  014%=      5-min Rain = 0
KCO2 201912Z 21010KT 39/07 A2978 RMK A01 T03940072  RH  014%=      5-min Rain = 0
KCO2 201913Z 21010KT 39/07 A2978 RMK A01 T03940065  RH  014%=      5-min Rain = 0
KCO2 201914Z 23007KT 39/08 A2978 RMK A01 T03930079  RH  015%=      5-min Rain = 0
KCO2 201915Z 25008KT 40/09 A2978 RMK A01 T03950089  RH  016%=      5-min Rain = 0
KCO2 201916Z 24009KT 40/08 A2978 RMK A01 T03960081  RH  015%=      5-min Rain = 0
KCO2 201917Z 26011KT 40/08 A2978 RMK A01 T03960079  RH  015%=      5-min Rain = 0
KCO2 201918Z 25009KT 39/08 A2978 RMK A01 T03940083  RH  015%=      5-min Rain = 0
KCO2 201919Z 25007KT 39/08 A2978 RMK A01 T03940083  RH  015%=      5-min Rain = 0
KCO2 201920Z 25006KT 39/07 A2978 RMK A01 T03940074  RH  014%=      5-min Rain = 0
KCO2 201921Z 25011G16KT 39/08 A2978 RMK A01 T03940084  RH  015%=      5-min Rain = 0
KCO2 201922Z 25011KT 39/07 A2978 RMK A01 T03940070  RH  014%=      5-min Rain = 0
KCO2 201923Z 25009KT 39/08 A2978 RMK A01 T03940080  RH  015%=      5-min Rain = 0
KCO2 201924Z 24010KT 39/07 A2978 RMK A01 T03940072  RH  014%=      5-min Rain = 0
KCO2 201925Z 24010KT 39/08 A2978 RMK A01 T03940083  RH  015%=      5-min Rain = 0
KCO2 201926Z 26011KT 40/08 A2978 RMK A01 T03950084  RH  015%=      5-min Rain = 0
KCO2 201927Z 27011KT 40/07 A2978 RMK A01 T03960072  RH  014%=      5-min Rain = 0
KCO2 201928Z 28013KT 40/07 A2978 RMK A01 T03950069  RH  014%=      5-min Rain = 0
KCO2 201929Z 28010KT 39/05 A2978 RMK A01 T03940052  RH  012%=      5-min Rain = 0
KCO2 201930Z 27011KT 39/07 A2978 RMK A01 T03940073  RH  014%=      5-min Rain = 0
KCO2 201931Z 26008KT 39/07 A2978 RMK A01 T03940072  RH  014%=      5-min Rain = 0
KCO2 201932Z 25009G14KT 40/08 A2978 RMK A01 T03950081  RH  015%=      5-min Rain = 0
KCO2 201933Z 25010KT 40/06 A2978 RMK A01 T03960064  RH  013%=      5-min Rain = 0
KCO2 201934Z 25011KT 40/07 A2978 RMK A01 T03960066  RH  013%=      5-min Rain = 0
KCO2 201935Z 24010KT 40/06 A2978 RMK A01 T03950055  RH  013%=      5-min Rain = 0
KCO2 201936Z 26010KT 40/08 A2978 RMK A01 T03950076  RH  015%=      5-min Rain = 0
KCO2 201937Z 26011KT 40/06 A2978 RMK A01 T03960062  RH  013%=      5-min Rain = 0
KCO2 201938Z 26011KT 40/05 A2978 RMK A01 T03960048  RH  012%=      5-min Rain = 0
KCO2 201939Z 26010G16KT 40/08 A2978 RMK A01 T03950079  RH  015%=      5-min Rain = 0
KCO2 201940Z 25012G17KT 40/07 A2978 RMK A01 T03950066  RH  014%=      5-min Rain = 0
KCO2 201941Z 23009G14KT 40/06 A2978 RMK A01 T03950055  RH  013%=      5-min Rain = 0
KCO2 201942Z 24008KT 40/06 A2978 RMK A01 T03950063  RH  013%=      5-min Rain = 0
KCO2 201943Z 23011KT 40/05 A2978 RMK A01 T03960050  RH  012%=      5-min Rain = 0
KCO2 201944Z 22009KT 40/05 A2978 RMK A01 T03960050  RH  012%=      5-min Rain = 0
KCO2 201945Z 24005KT 40/04 A2978 RMK A01 T03960035  RH  011%=      5-min Rain = 0
KCO2 201946Z 26003KT 40/03 A2978 RMK A01 T03960033  RH  011%=      5-min Rain = 0
KCO2 201947Z 24006KT 40/06 A2978 RMK A01 T03960061  RH  013%=      5-min Rain = 0
KCO2 201948Z 26012KT 40/07 A2978 RMK A01 T03980074  RH  014%=      5-min Rain = 0
KCO2 201949Z 26012KT 40/05 A2978 RMK A01 T03980053  RH  012%=      5-min Rain = 0
KCO2 201950Z 26010KT 40/06 A2978 RMK A01 T03960064  RH  013%=      5-min Rain = 0
KCO2 201951Z 26011KT 40/05 A2978 RMK A01 T03960047  RH  012%=      5-min Rain = 0
KCO2 201952Z 26007KT 39/03 A2977 RMK A01 T03940034  RH  011%=      5-min Rain = 0
KCO2 201953Z 25009KT 39/06 A2978 RMK A01 T03940061  RH  013%=      5-min Rain = 0
KCO2 201954Z 25009KT 40/05 A2978 RMK A01 T03950052  RH  012%=      5-min Rain = 0
KCO2 201955Z 26007KT 40/07 A2978 RMK A01 T03960068  RH  014%=      5-min Rain = 0
KCO2 201956Z 26008KT 40/06 A2978 RMK A01 T03970062  RH  013%=      5-min Rain = 0
KCO2 201957Z 25008KT 40/05 A2977 RMK A01 T03980046  RH  012%=      5-min Rain = 0
KCO2 201958Z 24012KT 40/07 A2978 RMK A01 T03970069  RH  014%=      5-min Rain = 0
KCO2 201959Z 24010KT 40/05 A2978 RMK A01 T03970050  RH  012%=      5-min Rain = 0
KCO2 202000Z 23008KT 40/05 A2977 RMK A01 T03970045  RH  012%=      5-min Rain = 0
KCO2 202001Z 23005KT 40/04 A2977 RMK A01 T03970042  RH  011%=      5-min Rain = 0
KCO2 202002Z 24005KT 40/04 A2977 RMK A01 T03970040  RH  011%=      5-min Rain = 0
KCO2 202003Z 24006KT 40/05 A2977 RMK A01 T03970045  RH  012%=      5-min Rain = 0
KCO2 202004Z 23010G16KT 40/06 A2977 RMK A01 T03970061  RH  013%=      5-min Rain = 0
KCO2 202005Z 23010KT 40/06 A2977 RMK A01 T03990062  RH  013%=      5-min Rain = 0
KCO2 202006Z 23008KT 40/07 A2977 RMK A01 T03980065  RH  013%=      5-min Rain = 0
KCO2 202007Z 24010KT 40/06 A2977 RMK A01 T03990064  RH  013%=      5-min Rain = 0
KCO2 202008Z 23008KT 40/07 A2977 RMK A01 T04000070  RH  014%=      5-min Rain = 0
KCO2 202009Z 24009KT 40/06 A2977 RMK A01 T04000056  RH  012%=      5-min Rain = 0
KCO2 202010Z 24010KT 40/06 A2977 RMK A01 T04000063  RH  013%=      5-min Rain = 0
KCO2 202011Z 24010KT 40/05 A2977 RMK A01 T04000048  RH  012%=      5-min Rain = 0
KCO2 202012Z 22010KT 40/05 A2977 RMK A01 T04000046  RH  011%=      5-min Rain = 0
KCO2 202013Z 23009KT 40/06 A2977 RMK A01 T03990059  RH  013%=      5-min Rain = 0
KCO2 202014Z 23009KT 40/04 A2977 RMK A01 T04000044  RH  011%=      5-min Rain = 0
KCO2 202015Z 23010KT 40/03 A2977 RMK A01 T04000033  RH  011%=      5-min Rain = 0
KCO2 202016Z 23008KT 40/02 A2977 RMK A01 T03990023  RH  010%=      5-min Rain = 0
KCO2 202017Z 21008KT 40/05 A2977 RMK A01 T03980048  RH  012%=      5-min Rain = 0
KCO2 202018Z 19008KT 40/07 A2977 RMK A01 T03990069  RH  014%=      5-min Rain = 0
KCO2 202019Z 18006KT 40/04 A2977 RMK A01 T03990044  RH  011%=      5-min Rain = 0
KCO2 202020Z 17006KT 40/06 A2977 RMK A01 T03990056  RH  012%=      5-min Rain = 0
KCO2 202021Z 15005KT 40/05 A2977 RMK A01 T03990051  RH  012%=      5-min Rain = 0
KCO2 202022Z 16006KT 40/05 A2976 RMK A01 T04000047  RH  012%=      5-min Rain = 0
KCO2 202023Z 19007G14KT 40/06 A2976 RMK A01 T04010062  RH  013%=      5-min Rain = 0
KCO2 202024Z 21009KT 40/03 A2977 RMK A01 T04010033  RH  011%=      5-min Rain = 0
KCO2 202025Z 21009KT 40/04 A2976 RMK A01 T03990043  RH  011%=      5-min Rain = 0
KCO2 202026Z 23010KT 40/04 A2976 RMK A01 T03980041  RH  011%=      5-min Rain = 0
KCO2 202027Z 22011KT 40/04 A2976 RMK A01 T03980040  RH  011%=      5-min Rain = 0
KCO2 202028Z 26009KT 40/05 A2976 RMK A01 T03980054  RH  012%=      5-min Rain = 0
KCO2 202029Z 25007KT 40/07 A2976 RMK A01 T03990067  RH  013%=      5-min Rain = 0
KCO2 202030Z 26007KT 40/07 A2976 RMK A01 T03990074  RH  014%=      5-min Rain = 0
KCO2 202031Z 26011KT 40/07 A2976 RMK A01 T04000069  RH  013%=      5-min Rain = 0
KCO2 202032Z 26012KT 40/06 A2976 RMK A01 T04000057  RH  012%=      5-min Rain = 0
KCO2 202033Z 26010KT 40/06 A2976 RMK A01 T04000063  RH  013%=      5-min Rain = 0
KCO2 202034Z 26008KT 40/05 A2976 RMK A01 T03990052  RH  012%=      5-min Rain = 0
KCO2 202035Z 25011KT 40/06 A2976 RMK A01 T03990056  RH  012%=      5-min Rain = 0
KCO2 202036Z 24011KT 40/04 A2976 RMK A01 T03990042  RH  011%=      5-min Rain = 0
KCO2 202037Z 25009KT 40/04 A2976 RMK A01 T03990044  RH  011%=      5-min Rain = 0
KCO2 202038Z 25009KT 40/05 A2976 RMK A01 T03990049  RH  012%=      5-min Rain = 0
KCO2 202039Z 25009KT 40/04 A2976 RMK A01 T03980043  RH  011%=      5-min Rain = 0
KCO2 202040Z 25007KT 40/05 A2976 RMK A01 T03980045  RH  012%=      5-min Rain = 0
KCO2 202041Z 26007KT 40/03 A2976 RMK A01 T03990027  RH  010%=      5-min Rain = 0
KCO2 202042Z 26008KT 40/05 A2976 RMK A01 T03990045  RH  012%=      5-min Rain = 0
KCO2 202043Z 27006KT 40/04 A2976 RMK A01 T03990043  RH  011%=      5-min Rain = 0
KCO2 202044Z 27005KT 40/03 A2976 RMK A01 T04000034  RH  011%=      5-min Rain = 0
KCO2 202045Z 26004KT 40/06 A2976 RMK A01 T04010057  RH  012%=      5-min Rain = 0
KCO2 202046Z 26006KT 40/04 A2976 RMK A01 T04020043  RH  011%=      5-min Rain = 0
KCO2 202047Z 27006KT 40/05 A2976 RMK A01 T04020054  RH  012%=      5-min Rain = 0
KCO2 202048Z 25006KT 40/08 A2976 RMK A01 T04020077  RH  014%=      5-min Rain = 0
KCO2 202049Z 28005KT 40/05 A2976 RMK A01 T04020049  RH  012%=      5-min Rain = 0
KCO2 202050Z 28005KT 40/04 A2976 RMK A01 T04020038  RH  011%=      5-min Rain = 0
KCO2 202051Z 29005KT 40/04 A2976 RMK A01 T04010040  RH  011%=      5-min Rain = 0
KCO2 202052Z 27005KT 40/04 A2976 RMK A01 T04010042  RH  011%=      5-min Rain = 0
KCO2 202053Z 26006KT 40/06 A2975 RMK A01 T04010056  RH  012%=      5-min Rain = 0
KCO2 202054Z 27008KT 40/05 A2975 RMK A01 T04020046  RH  011%=      5-min Rain = 0
KCO2 202055Z 28010KT 40/03 A2975 RMK A01 T04020034  RH  011%=      5-min Rain = 0
KCO2 202056Z 29009KT 40/02 A2975 RMK A01 T04010024  RH  010%=      5-min Rain = 0
KCO2 202057Z 27009KT 40/03 A2975 RMK A01 T04000031  RH  010%=      5-min Rain = 0
KCO2 202058Z 27009KT 40/03 A2975 RMK A01 T04000025  RH  010%=      5-min Rain = 0
KCO2 202059Z 27006KT 40/03 A2975 RMK A01 T03990027  RH  010%=      5-min Rain = 0
KCO2 202100Z 25006KT 40/01 A2975 RMK A01 T04000013  RH  009%=      5-min Rain = 0
KCO2 202101Z 27007KT 40/06 A2975 RMK A01 T04000059  RH  013%=      5-min Rain = 0
KCO2 202102Z 29009KT 40/03 A2975 RMK A01 T04010030  RH  010%=      5-min Rain = 0
KCO2 202103Z 28007KT 40/06 A2975 RMK A01 T04010058  RH  012%=      5-min Rain = 0
KCO2 202104Z 28008KT 40/05 A2975 RMK A01 T04010050  RH  012%=      5-min Rain = 0
KCO2 202105Z 28007KT 40/05 A2975 RMK A01 T04020050  RH  012%=      5-min Rain = 0
KCO2 202106Z 28010KT 40/06 A2975 RMK A01 T04020055  RH  012%=      5-min Rain = 0
KCO2 202107Z 27008KT 40/04 A2975 RMK A01 T04010044  RH  011%=      5-min Rain = 0
KCO2 202108Z 26008KT 40/05 A2975 RMK A01 T04010048  RH  012%=      5-min Rain = 0
KCO2 202109Z 26008KT 40/05 A2975 RMK A01 T04000053  RH  012%=      5-min Rain = 0
KCO2 202110Z 27010KT 40/05 A2975 RMK A01 T04000046  RH  012%=      5-min Rain = 0
KCO2 202111Z 28011KT 40/03 A2975 RMK A01 T04000030  RH  010%=      5-min Rain = 0
KCO2 202112Z 28011KT 40/04 A2975 RMK A01 T04000044  RH  011%=      5-min Rain = 0
KCO2 202113Z 28009KT 40/06 A2975 RMK A01 T03990055  RH  012%=      5-min Rain = 0
KCO2 202114Z 25011KT 40/06 A2975 RMK A01 T03990062  RH  013%=      5-min Rain = 0
KCO2 202115Z 24010KT 40/04 A2975 RMK A01 T03990043  RH  011%=      5-min Rain = 0
KCO2 202116Z 26010KT 40/03 A2975 RMK A01 T03990034  RH  011%=      5-min Rain = 0
KCO2 202117Z 27010KT 40/05 A2975 RMK A01 T03990054  RH  012%=      5-min Rain = 0
KCO2 202118Z 27012G17KT 40/05 A2975 RMK A01 T03990048  RH  012%=      5-min Rain = 0
KCO2 202119Z 27011KT 40/03 A2975 RMK A01 T03990031  RH  010%=      5-min Rain = 0
KCO2 202120Z 24011KT 40/05 A2975 RMK A01 T03980053  RH  012%=      5-min Rain = 0
KCO2 202121Z 24011KT 40/06 A2975 RMK A01 T03980057  RH  013%=      5-min Rain = 0
KCO2 202122Z 23013KT 40/04 A2975 RMK A01 T03990043  RH  011%=      5-min Rain = 0
KCO2 202123Z 24009KT 40/05 A2975 RMK A01 T03990050  RH  012%=      5-min Rain = 0
KCO2 202124Z 23008KT 40/07 A2975 RMK A01 T04000068  RH  013%=      5-min Rain = 0
KCO2 202125Z 23009KT 40/07 A2975 RMK A01 T04010067  RH  013%=      5-min Rain = 0
KCO2 202126Z 22008KT 40/06 A2974 RMK A01 T04010057  RH  012%=      5-min Rain = 0
KCO2 202127Z 20006KT 40/04 A2974 RMK A01 T04010041  RH  011%=      5-min Rain = 0
KCO2 202128Z 21005KT 40/06 A2974 RMK A01 T04000061  RH  013%=      5-min Rain = 0
KCO2 202129Z 24008KT 40/06 A2974 RMK A01 T04010060  RH  013%=      5-min Rain = 0
KCO2 202130Z 27007KT 40/04 A2974 RMK A01 T04010041  RH  011%=      5-min Rain = 0
KCO2 202131Z 24013G24KT 40/06 A2974 RMK A01 T04000064  RH  013%=      5-min Rain = 0
KCO2 202132Z 23009KT 40/07 A2974 RMK A01 T04000070  RH  014%=      5-min Rain = 0
KCO2 202133Z 23011KT 40/04 A2974 RMK A01 T04000043  RH  011%=      5-min Rain = 0
KCO2 202134Z 24010KT 40/06 A2974 RMK A01 T04000058  RH  012%=      5-min Rain = 0
KCO2 202135Z 26011KT 40/05 A2974 RMK A01 T03990045  RH  011%=      5-min Rain = 0
KCO2 202136Z 26013KT 40/04 A2974 RMK A01 T03990044  RH  011%=      5-min Rain = 0
KCO2 202137Z 26012KT 40/03 A2974 RMK A01 T03980031  RH  011%=      5-min Rain = 0
KCO2 202138Z 26010KT 40/05 A2974 RMK A01 T03970045  RH  012%=      5-min Rain = 0
KCO2 202139Z 26010KT 40/05 A2974 RMK A01 T03970054  RH  012%=      5-min Rain = 0
KCO2 202140Z 25011KT 40/05 A2974 RMK A01 T03970047  RH  012%=      5-min Rain = 0
KCO2 202141Z 25008KT 40/04 A2974 RMK A01 T03970039  RH  011%=      5-min Rain = 0
KCO2 202142Z 26007KT 40/05 A2974 RMK A01 T03970051  RH  012%=      5-min Rain = 0
KCO2 202143Z 25011KT 40/05 A2974 RMK A01 T03970047  RH  012%=      5-min Rain = 0
KCO2 202144Z 25011G17KT 40/05 A2974 RMK A01 T03970053  RH  012%=      5-min Rain = 0
KCO2 202145Z 25013KT 40/05 A2974 RMK A01 T03970052  RH  012%=      5-min Rain = 0
KCO2 202146Z 27009KT 40/04 A2974 RMK A01 T03970043  RH  011%=      5-min Rain = 0
KCO2 202147Z 27009KT 40/05 A2974 RMK A01 T03970053  RH  012%=      5-min Rain = 0
KCO2 202148Z 26009KT 40/04 A2974 RMK A01 T03970044  RH  011%=      5-min Rain = 0
KCO2 202149Z 23007KT 40/04 A2974 RMK A01 T03970044  RH  012%=      5-min Rain = 0
KCO2 202150Z 22007KT 40/05 A2974 RMK A01 T03970049  RH  012%=      5-min Rain = 0
KCO2 202151Z 24005KT 40/03 A2974 RMK A01 T03990034  RH  011%=      5-min Rain = 0
KCO2 202152Z 24005KT 40/04 A2974 RMK A01 T03990036  RH  011%=      5-min Rain = 0
KCO2 202153Z 24010KT 40/07 A2974 RMK A01 T04000066  RH  013%=      5-min Rain = 0
KCO2 202154Z 24014KT 40/05 A2974 RMK A01 T04000047  RH  012%=      5-min Rain = 0
KCO2 202155Z 23013KT 40/05 A2974 RMK A01 T03990045  RH  011%=      5-min Rain = 0
KCO2 202156Z 24014KT 40/04 A2974 RMK A01 T03980041  RH  011%=      5-min Rain = 0
KCO2 202157Z 23013KT 40/04 A2974 RMK A01 T03970037  RH  011%=      5-min Rain = 0
KCO2 202158Z 23012KT 40/04 A2974 RMK A01 T03970042  RH  011%=      5-min Rain = 0
KCO2 202159Z 23011KT 40/04 A2974 RMK A01 T03970044  RH  012%=      5-min Rain = 0
KCO2 202200Z 23012KT 40/04 A2974 RMK A01 T03970037  RH  011%=      5-min Rain = 0
KCO2 202201Z 23008KT 40/04 A2974 RMK A01 T03970036  RH  011%=      5-min Rain = 0
KCO2 202202Z 21007KT 40/06 A2974 RMK A01 T03970057  RH  013%=      5-min Rain = 0
KCO2 202203Z 22008KT 40/07 A2974 RMK A01 T03970072  RH  014%=      5-min Rain = 0
KCO2 202204Z 22007KT 40/07 A2974 RMK A01 T03980065  RH  013%=      5-min Rain = 0
KCO2 202205Z 22007KT 40/06 A2974 RMK A01 T03980059  RH  013%=      5-min Rain = 0
KCO2 202206Z 26006KT 40/07 A2974 RMK A01 T03990073  RH  014%=      5-min Rain = 0
KCO2 202207Z 27008KT 40/08 A2974 RMK A01 T03990081  RH  015%=      5-min Rain = 0
KCO2 202208Z 27011KT 40/05 A2974 RMK A01 T03990052  RH  012%=      5-min Rain = 0
KCO2 202209Z 26010KT 40/05 A2974 RMK A01 T03980049  RH  012%=      5-min Rain = 0
KCO2 202210Z 26011KT 40/06 A2974 RMK A01 T03960056  RH  013%=      5-min Rain = 0
KCO2 202211Z 25010KT 40/05 A2974 RMK A01 T03960051  RH  012%=      5-min Rain = 0
KCO2 202212Z 25007KT 40/08 A2974 RMK A01 T03960076  RH  014%=      5-min Rain = 0
KCO2 202213Z 25008KT 40/08 A2974 RMK A01 T03960079  RH  015%=      5-min Rain = 0
KCO2 202214Z 24007KT 40/08 A2974 RMK A01 T03960081  RH  015%=      5-min Rain = 0
KCO2 202215Z 23007KT 40/08 A2974 RMK A01 T03960084  RH  015%=      5-min Rain = 0
KCO2 202216Z 23005KT 40/08 A2974 RMK A01 T03970077  RH  015%=      5-min Rain = 0
KCO2 202217Z 22006KT 40/08 A2974 RMK A01 T03980080  RH  015%=      5-min Rain = 0
KCO2 202218Z 24005KT 40/08 A2974 RMK A01 T03980081  RH  015%=      5-min Rain = 0
KCO2 202219Z 24006KT 40/07 A2974 RMK A01 T03980071  RH  014%=      5-min Rain = 0
KCO2 202220Z 24007KT 40/06 A2974 RMK A01 T03990059  RH  013%=      5-min Rain = 0
KCO2 202221Z 25007KT 40/05 A2974 RMK A01 T03980052  RH  012%=      5-min Rain = 0
KCO2 202222Z 25009KT 40/06 A2974 RMK A01 T03980062  RH  013%=      5-min Rain = 0
KCO2 202223Z 26008KT 40/07 A2974 RMK A01 T03970065  RH  013%=      5-min Rain = 0
KCO2 202224Z 26008KT 40/06 A2974 RMK A01 T03970062  RH  013%=      5-min Rain = 0
KCO2 202225Z 26009KT 40/07 A2973 RMK A01 T03960065  RH  013%=      5-min Rain = 0
KCO2 202226Z 24009KT 40/07 A2973 RMK A01 T03960069  RH  014%=      5-min Rain = 0
KCO2 202227Z 25009KT 40/06 A2974 RMK A01 T03950056  RH  013%=      5-min Rain = 0
KCO2 202228Z 23011KT 40/06 A2973 RMK A01 T03950062  RH  013%=      5-min Rain = 0
KCO2 202229Z 23011G16KT 40/06 A2974 RMK A01 T03950058  RH  013%=      5-min Rain = 0
KCO2 202230Z 24008KT 40/05 A2973 RMK A01 T03950045  RH  012%=      5-min Rain = 0
KCO2 202231Z 23007KT 40/06 A2973 RMK A01 T03950055  RH  013%=      5-min Rain = 0
KCO2 202232Z 23008KT 40/06 A2973 RMK A01 T03950062  RH  013%=      5-min Rain = 0
KCO2 202233Z 23007KT 40/06 A2973 RMK A01 T03950060  RH  013%=      5-min Rain = 0
KCO2 202234Z 22007KT 40/08 A2973 RMK A01 T03950081  RH  015%=      5-min Rain = 0
KCO2 202235Z 22009KT 40/08 A2973 RMK A01 T03950075  RH  014%=      5-min Rain = 0
KCO2 202236Z 22012KT 40/06 A2973 RMK A01 T03950061  RH  013%=      5-min Rain = 0
KCO2 202237Z 23010KT 39/06 A2973 RMK A01 T03940063  RH  013%=      5-min Rain = 0
KCO2 202238Z 23009KT 39/06 A2973 RMK A01 T03940060  RH  013%=      5-min Rain = 0
KCO2 202239Z 21009KT 39/06 A2973 RMK A01 T03940055  RH  013%=      5-min Rain = 0
KCO2 202240Z 22009KT 39/06 A2973 RMK A01 T03940060  RH  013%=      5-min Rain = 0
KCO2 202241Z 22007KT 39/07 A2973 RMK A01 T03940068  RH  014%=      5-min Rain = 0
KCO2 202242Z 22006KT 39/08 A2973 RMK A01 T03940079  RH  015%=      5-min Rain = 0
KCO2 202243Z 22007KT 39/08 A2973 RMK A01 T03930076  RH  015%=      5-min Rain = 0
KCO2 202244Z 23006KT 39/08 A2973 RMK A01 T03940078  RH  015%=      5-min Rain = 0
KCO2 202245Z 25006KT 39/09 A2973 RMK A01 T03940094  RH  016%=      5-min Rain = 0
KCO2 202246Z 26009KT 39/09 A2973 RMK A01 T03940086  RH  016%=      5-min Rain = 0
KCO2 202247Z 26009KT 40/05 A2973 RMK A01 T03950050  RH  012%=      5-min Rain = 0
KCO2 202248Z 25007KT 40/05 A2973 RMK A01 T03950046  RH  012%=      5-min Rain = 0
KCO2 202249Z 25004KT 40/02 A2973 RMK A01 T03950023  RH  010%=      5-min Rain = 0
KCO2 202250Z 25005KT 40/07 A2973 RMK A01 T03960068  RH  014%=      5-min Rain = 0
KCO2 202251Z 25006KT 40/09 A2973 RMK A01 T03960090  RH  016%=      5-min Rain = 0
KCO2 202252Z 24007KT 40/09 A2973 RMK A01 T03960090  RH  016%=      5-min Rain = 0
KCO2 202253Z 24008KT 40/08 A2973 RMK A01 T03950077  RH  015%=      5-min Rain = 0
KCO2 202254Z 25006KT 40/08 A2973 RMK A01 T03950079  RH  015%=      5-min Rain = 0
KCO2 202255Z 25005KT 40/07 A2972 RMK A01 T03950071  RH  014%=      5-min Rain = 0
KCO2 202256Z 22006KT 39/08 A2972 RMK A01 T03940075  RH  014%=      5-min Rain = 0
KCO2 202257Z 21005KT 39/09 A2972 RMK A01 T03940086  RH  016%=      5-min Rain = 0
KCO2 202258Z 22006KT 39/08 A2972 RMK A01 T03940079  RH  015%=      5-min Rain = 0
KCO2 202259Z 23005KT 39/09 A2972 RMK A01 T03940093  RH  016%=      5-min Rain = 0
KCO2 202300Z 24009G14KT 39/08 A2972 RMK A01 T03940084  RH  016%=      5-min Rain = 0
KCO2 202301Z 23009KT 39/06 A2972 RMK A01 T03930063  RH  013%=      5-min Rain = 0
KCO2 202302Z 24009KT 39/05 A2972 RMK A01 T03930047  RH  012%=      5-min Rain = 0
KCO2 202303Z 25009KT 39/05 A2972 RMK A01 T03930051  RH  012%=      5-min Rain = 0
KCO2 202304Z 24008KT 39/06 A2972 RMK A01 T03920059  RH  013%=      5-min Rain = 0
KCO2 202305Z 23005KT 39/06 A2972 RMK A01 T03910062  RH  013%=      5-min Rain = 0
KCO2 202306Z 23005KT 39/07 A2972 RMK A01 T03910068  RH  014%=      5-min Rain = 0
KCO2 202307Z 22005KT 39/06 A2972 RMK A01 T03910057  RH  013%=      5-min Rain = 0
KCO2 202308Z 23004KT 39/07 A2972 RMK A01 T03920074  RH  015%=      5-min Rain = 0
KCO2 202309Z 23006KT 39/08 A2972 RMK A01 T03930082  RH  015%=      5-min Rain = 0
KCO2 202310Z 23007KT 39/06 A2972 RMK A01 T03940061  RH  013%=      5-min Rain = 0
KCO2 202311Z 23005KT 39/06 A2972 RMK A01 T03940057  RH  013%=      5-min Rain = 0
KCO2 202312Z 24006KT 39/07 A2972 RMK A01 T03930070  RH  014%=      5-min Rain = 0
KCO2 202313Z 25008KT 39/07 A2972 RMK A01 T03930070  RH  014%=      5-min Rain = 0
KCO2 202314Z 25006KT 39/08 A2972 RMK A01 T03920075  RH  015%=      5-min Rain = 0
KCO2 202315Z 24006KT 39/08 A2972 RMK A01 T03920082  RH  015%=      5-min Rain = 0
KCO2 202316Z 22007KT 39/09 A2972 RMK A01 T03900092  RH  017%=      5-min Rain = 0
KCO2 202317Z 24007KT 39/08 A2972 RMK A01 T03900078  RH  015%=      5-min Rain = 0
KCO2 202318Z 23007KT 39/08 A2972 RMK A01 T03900077  RH  015%=      5-min Rain = 0
KCO2 202319Z 22008KT 39/07 A2972 RMK A01 T03900069  RH  014%=      5-min Rain = 0
KCO2 202320Z 22008KT 39/07 A2972 RMK A01 T03900070  RH  014%=      5-min Rain = 0
KCO2 202321Z 23008KT 39/07 A2972 RMK A01 T03890068  RH  014%=      5-min Rain = 0
KCO2 202322Z 22007KT 39/07 A2972 RMK A01 T03890070  RH  014%=      5-min Rain = 0
KCO2 202323Z 22006KT 39/08 A2971 RMK A01 T03890080  RH  015%=      5-min Rain = 0
KCO2 202324Z 22005KT 39/09 A2971 RMK A01 T03880086  RH  016%=      5-min Rain = 0
KCO2 202325Z 22006KT 39/08 A2971 RMK A01 T03880083  RH  016%=      5-min Rain = 0
KCO2 202326Z 23006KT 39/07 A2971 RMK A01 T03870072  RH  015%=      5-min Rain = 0
KCO2 202327Z 24006KT 39/08 A2971 RMK A01 T03880079  RH  015%=      5-min Rain = 0
KCO2 202328Z 24006KT 39/07 A2971 RMK A01 T03880070  RH  014%=      5-min Rain = 0
KCO2 202329Z 24004KT 39/08 A2971 RMK A01 T03880078  RH  015%=      5-min Rain = 0
KCO2 202330Z 24005KT 39/09 A2971 RMK A01 T03880094  RH  017%=      5-min Rain = 0
KCO2 202331Z 22005KT 39/08 A2971 RMK A01 T03880076  RH  015%=      5-min Rain = 0
KCO2 202332Z 22005KT 39/07 A2971 RMK A01 T03880067  RH  014%=      5-min Rain = 0
KCO2 202333Z 23004KT 39/07 A2971 RMK A01 T03890072  RH  015%=      5-min Rain = 0
KCO2 202334Z 24006KT 39/07 A2971 RMK A01 T03900074  RH  015%=      5-min Rain = 0
KCO2 202335Z 24005KT 39/10 A2971 RMK A01 T03890101  RH  018%=      5-min Rain = 0
KCO2 202336Z 22005KT 39/11 A2971 RMK A01 T03880107  RH  019%=      5-min Rain = 0
KCO2 202337Z 23003KT 39/11 A2971 RMK A01 T03860105  RH  019%=      5-min Rain = 0
KCO2 202338Z 23003KT 39/12 A2971 RMK A01 T03860120  RH  020%=      5-min Rain = 0
KCO2 202339Z 23003KT 39/14 A2971 RMK A01 T03860138  RH  023%=      5-min Rain = 0
KCO2 202340Z 22003KT 39/12 A2971 RMK A01 T03860122  RH  021%=      5-min Rain = 0
KCO2 202341Z 23005KT 39/12 A2971 RMK A01 T03860119  RH  020%=      5-min Rain = 0
KCO2 202342Z 21005KT 39/11 A2971 RMK A01 T03850108  RH  019%=      5-min Rain = 0
KCO2 202343Z 22005KT 38/12 A2971 RMK A01 T03840120  RH  021%=      5-min Rain = 0
KCO2 202344Z 22007G12KT 38/12 A2971 RMK A01 T03820119  RH  021%=      5-min Rain = 0
KCO2 202345Z 22008KT 38/08 A2971 RMK A01 T03810081  RH  016%=      5-min Rain = 0
KCO2 202346Z 24008KT 38/07 A2971 RMK A01 T03820073  RH  015%=      5-min Rain = 0
KCO2 202347Z 24007KT 38/09 A2971 RMK A01 T03810086  RH  017%=      5-min Rain = 0
KCO2 202348Z 25007KT 38/08 A2971 RMK A01 T03800077  RH  016%=      5-min Rain = 0
KCO2 202349Z 25006KT 38/09 A2971 RMK A01 T03800086  RH  017%=      5-min Rain = 0
KCO2 202350Z 25005KT 38/10 A2971 RMK A01 T03790096  RH  018%=      5-min Rain = 0
KCO2 202351Z 26008G14KT 38/10 A2971 RMK A01 T03770102  RH  019%=      5-min Rain = 0
KCO2 202352Z 24007G13KT 38/07 A2971 RMK A01 T03780071  RH  015%=      5-min Rain = 0
KCO2 202353Z 24009KT 38/08 A2971 RMK A01 T03790081  RH  016%=      5-min Rain = 0
KCO2 202354Z 24010KT 38/07 A2971 RMK A01 T03790067  RH  015%=      5-min Rain = 0
KCO2 202355Z 24007KT 38/06 A2971 RMK A01 T03790064  RH  015%=      5-min Rain = 0
KCO2 202356Z 24007KT 38/07 A2971 RMK A01 T03790071  RH  015%=      5-min Rain = 0
KCO2 202357Z 24006KT 38/08 A2971 RMK A01 T03790083  RH  017%=      5-min Rain = 0
KCO2 202358Z 24007KT 38/06 A2971 RMK A01 T03790064  RH  015%=      5-min Rain = 0
KCO2 202359Z 24006KT 38/09 A2971 RMK A01 T03790089  RH  017%=      5-min Rain = 0
KCO2 210000Z 25007KT 38/09 A2971 RMK A01 T03780086  RH  017%=      5-min Rain = 0
KCO2 210001Z 24007KT 38/09 A2971 RMK A01 T03780088  RH  017%=      5-min Rain = 0
KCO2 210002Z 25006KT 38/09 A2971 RMK A01 T03770089  RH  017%=      5-min Rain = 0
KCO2 210003Z 24006KT 38/08 A2971 RMK A01 T03770077  RH  016%=      5-min Rain = 0
KCO2 210004Z 24006KT 38/09 A2971 RMK A01 T03780088  RH  017%=      5-min Rain = 0
KCO2 210005Z 24008KT 38/08 A2971 RMK A01 T03780082  RH  017%=      5-min Rain = 0
KCO2 210006Z 24008KT 38/07 A2971 RMK A01 T03780072  RH  016%=      5-min Rain = 0
KCO2 210007Z 22006KT 38/09 A2971 RMK A01 T03790085  RH  017%=      5-min Rain = 0
KCO2 210008Z 23006KT 38/09 A2971 RMK A01 T03780088  RH  017%=      5-min Rain = 0
KCO2 210009Z 22006KT 38/08 A2971 RMK A01 T03770084  RH  017%=      5-min Rain = 0
KCO2 210010Z 22005KT 38/10 A2971 RMK A01 T03770100  RH  019%=      5-min Rain = 0
KCO2 210011Z 23006KT 38/10 A2971 RMK A01 T03760095  RH  018%=      5-min Rain = 0
KCO2 210012Z 23006KT 38/08 A2971 RMK A01 T03760083  RH  017%=      5-min Rain = 0
KCO2 210013Z 24006KT 38/09 A2971 RMK A01 T03760094  RH  018%=      5-min Rain = 0
KCO2 210014Z 24005KT 38/10 A2971 RMK A01 T03750103  RH  019%=      5-min Rain = 0
KCO2 210015Z 24005KT 37/11 A2971 RMK A01 T03740106  RH  020%=      5-min Rain = 0
KCO2 210016Z 24005KT 37/10 A2971 RMK A01 T03740100  RH  019%=      5-min Rain = 0
KCO2 210017Z 24004KT 37/11 A2971 RMK A01 T03740109  RH  020%=      5-min Rain = 0
KCO2 210018Z 24003KT 37/11 A2971 RMK A01 T03730109  RH  020%=      5-min Rain = 0
KCO2 210019Z 24003KT 37/12 A2971 RMK A01 T03720117  RH  022%=      5-min Rain = 0
KCO2 210020Z 24005KT 37/11 A2971 RMK A01 T03720110  RH  021%=      5-min Rain = 0
KCO2 210021Z 24004KT 37/13 A2971 RMK A01 T03720129  RH  024%=      5-min Rain = 0
KCO2 210022Z 25005KT 37/12 A2971 RMK A01 T03730117  RH  022%=      5-min Rain = 0
KCO2 210023Z 22003KT 37/12 A2971 RMK A01 T03730115  RH  021%=      5-min Rain = 0
KCO2 210024Z 24003KT 37/13 A2971 RMK A01 T03740128  RH  023%=      5-min Rain = 0
KCO2 210025Z 24004KT 37/14 A2971 RMK A01 T03740135  RH  024%=      5-min Rain = 0
KCO2 210026Z 24004KT 37/14 A2971 RMK A01 T03740138  RH  025%=      5-min Rain = 0
KCO2 210027Z 24004KT 37/12 A2971 RMK A01 T03720120  RH  022%=      5-min Rain = 0
KCO2 210028Z 24005KT 37/12 A2971 RMK A01 T03720121  RH  022%=      5-min Rain = 0
KCO2 210029Z 24004KT 37/13 A2971 RMK A01 T03710131  RH  024%=      5-min Rain = 0
KCO2 210030Z 23003KT 37/13 A2971 RMK A01 T03700131  RH  024%=      5-min Rain = 0
KCO2 210031Z 23003KT 37/13 A2971 RMK A01 T03690127  RH  023%=      5-min Rain = 0
KCO2 210032Z 23003KT 37/14 A2971 RMK A01 T03690139  RH  025%=      5-min Rain = 0
KCO2 210033Z 23002KT 37/16 A2971 RMK A01 T03690162  RH  029%=      5-min Rain = 0
KCO2 210034Z 23002KT 37/15 A2971 RMK A01 T03710153  RH  028%=      5-min Rain = 0
KCO2 210035Z 23003KT 37/16 A2971 RMK A01 T03730157  RH  028%=      5-min Rain = 0
KCO2 210036Z 23003KT 38/16 A2971 RMK A01 T03750162  RH  029%=      5-min Rain = 0
KCO2 210037Z 23003KT 38/17 A2971 RMK A01 T03750167  RH  030%=      5-min Rain = 0
KCO2 210038Z 23003KT 38/15 A2971 RMK A01 T03750151  RH  027%=      5-min Rain = 0
KCO2 210039Z 23003KT 37/13 A2971 RMK A01 T03740132  RH  024%=      5-min Rain = 0
KCO2 210040Z 23003KT 37/14 A2971 RMK A01 T03730140  RH  025%=      5-min Rain = 0
KCO2 210041Z 23003KT 37/13 A2971 RMK A01 T03720133  RH  024%=      5-min Rain = 0
KCO2 210042Z 23003KT 37/15 A2971 RMK A01 T03710146  RH  026%=      5-min Rain = 0
KCO2 210043Z 22003KT 37/15 A2971 RMK A01 T03710147  RH  026%=      5-min Rain = 0
KCO2 210044Z 22003KT 37/15 A2971 RMK A01 T03710147  RH  026%=      5-min Rain = 0
KCO2 210045Z 22003KT 37/16 A2971 RMK A01 T03710161  RH  029%=      5-min Rain = 0
KCO2 210046Z 22003KT 37/18 A2971 RMK A01 T03700175  RH  032%=      5-min Rain = 0
KCO2 210047Z 23003KT 37/19 A2971 RMK A01 T03690194  RH  036%=      5-min Rain = 0
KCO2 210048Z 23003KT 37/20 A2971 RMK A01 T03680196  RH  037%=      5-min Rain = 0
KCO2 210049Z 23003KT 37/18 A2971 RMK A01 T03670177  RH  033%=      5-min Rain = 0
KCO2 210050Z 22003KT 37/16 A2971 RMK A01 T03660158  RH  029%=      5-min Rain = 0
KCO2 210051Z 21003KT 37/15 A2971 RMK A01 T03650149  RH  028%=      5-min Rain = 0
KCO2 210052Z 21002KT 37/16 A2971 RMK A01 T03660159  RH  029%=      5-min Rain = 0
KCO2 210053Z 21003KT 37/16 A2971 RMK A01 T03650159  RH  030%=      5-min Rain = 0
KCO2 210054Z 21002KT 37/17 A2971 RMK A01 T03650167  RH  031%=      5-min Rain = 0
KCO2 210055Z 21002KT 36/17 A2971 RMK A01 T03630166  RH  031%=      5-min Rain = 0
KCO2 210056Z 20003KT 36/16 A2971 RMK A01 T03610164  RH  031%=      5-min Rain = 0
KCO2 210057Z 22003KT 36/18 A2971 RMK A01 T03600179  RH  035%=      5-min Rain = 0
KCO2 210058Z 20003KT 36/19 A2971 RMK A01 T03580189  RH  037%=      5-min Rain = 0
KCO2 210059Z 19003KT 36/18 A2971 RMK A01 T03560184  RH  037%=      5-min Rain = 0
KCO2 210100Z 19004KT 35/19 A2971 RMK A01 T03530191  RH  039%=      5-min Rain = 0
KCO2 210101Z 19004KT 35/19 A2971 RMK A01 T03500189  RH  039%=      5-min Rain = 0
KCO2 210102Z 19005KT 35/18 A2971 RMK A01 T03470179  RH  037%=      5-min Rain = 0
KCO2 210103Z 19005KT 35/18 A2971 RMK A01 T03450176  RH  037%=      5-min Rain = 0
KCO2 210104Z 19004KT 34/17 A2971 RMK A01 T03440173  RH  036%=      5-min Rain = 0
KCO2 210105Z 19004KT 34/17 A2971 RMK A01 T03430172  RH  036%=      5-min Rain = 0
KCO2 210106Z 19004KT 34/17 A2971 RMK A01 T03420167  RH  035%=      5-min Rain = 0
KCO2 210107Z 20004KT 34/16 A2971 RMK A01 T03420163  RH  034%=      5-min Rain = 0
KCO2 210108Z 19004KT 34/16 A2971 RMK A01 T03420163  RH  034%=      5-min Rain = 0
KCO2 210109Z 19004KT 34/17 A2971 RMK A01 T03410165  RH  035%=      5-min Rain = 0
KCO2 210110Z 18004KT 34/16 A2971 RMK A01 T03400160  RH  034%=      5-min Rain = 0
KCO2 210111Z 17005KT 34/16 A2971 RMK A01 T03390157  RH  034%=      5-min Rain = 0
KCO2 210112Z 17005KT 34/16 A2971 RMK A01 T03380160  RH  034%=      5-min Rain = 0
KCO2 210113Z 16005KT 34/16 A2971 RMK A01 T03360161  RH  035%=      5-min Rain = 0
KCO2 210114Z 16005KT 33/16 A2971 RMK A01 T03330162  RH  036%=      5-min Rain = 0
KCO2 210115Z 15006KT 33/15 A2971 RMK A01 T03300151  RH  034%=      5-min Rain = 0
KCO2 210116Z 15007KT 33/14 A2971 RMK A01 T03270144  RH  033%=      5-min Rain = 0
KCO2 210117Z 14007KT 32/15 A2971 RMK A01 T03240145  RH  034%=      5-min Rain = 0
KCO2 210118Z 14008KT 32/15 A2971 RMK A01 T03220151  RH  036%=      5-min Rain = 0
KCO2 210119Z 14010KT 32/16 A2971 RMK A01 T03190159  RH  038%=      5-min Rain = 0
KCO2 210120Z 14009KT 32/17 A2972 RMK A01 T03160171  RH  042%=      5-min Rain = 0
KCO2 210121Z 15009KT 32/17 A2972 RMK A01 T03150170  RH  042%=      5-min Rain = 0
KCO2 210122Z 15008KT 32/17 A2971 RMK A01 T03150166  RH  041%=      5-min Rain = 0
KCO2 210123Z 16009G17KT 32/16 A2971 RMK A01 T03150160  RH  039%=      5-min Rain = 0
KCO2 210124Z 16011KT 32/14 A2971 RMK A01 T03180144  RH  035%=      5-min Rain = 0
KCO2 210125Z 17011KT 32/14 A2972 RMK A01 T03240139  RH  033%=      5-min Rain = 0
KCO2 210126Z 18012KT 33/14 A2972 RMK A01 T03280136  RH  031%=      5-min Rain = 0
KCO2 210127Z 18011KT 33/13 A2972 RMK A01 T03290131  RH  030%=      5-min Rain = 0
KCO2 210128Z 18009KT 33/13 A2972 RMK A01 T03310133  RH  030%=      5-min Rain = 0
KCO2 210129Z 18009KT 33/13 A2972 RMK A01 T03310133  RH  030%=      5-min Rain = 0
KCO2 210130Z 18009KT 33/13 A2972 RMK A01 T03320133  RH  030%=      5-min Rain = 0
KCO2 210131Z 18009KT 33/14 A2972 RMK A01 T03320135  RH  030%=      5-min Rain = 0
KCO2 210132Z 18009KT 33/13 A2972 RMK A01 T03330134  RH  030%=      5-min Rain = 0
KCO2 210133Z 18010KT 33/14 A2972 RMK A01 T03340136  RH  030%=      5-min Rain = 0
KCO2 210134Z 18011KT 33/13 A2972 RMK A01 T03340134  RH  030%=      5-min Rain = 0
KCO2 210135Z 18012KT 34/13 A2972 RMK A01 T03360134  RH  029%=      5-min Rain = 0
KCO2 210136Z 18012KT 34/13 A2972 RMK A01 T03390133  RH  029%=      5-min Rain = 0
KCO2 210137Z 18011KT 34/13 A2972 RMK A01 T03410134  RH  029%=      5-min Rain = 0
KCO2 210138Z 18013KT 34/13 A2972 RMK A01 T03420134  RH  028%=      5-min Rain = 0
KCO2 210139Z 18012KT 34/13 A2972 RMK A01 T03440133  RH  028%=      5-min Rain = 0
KCO2 210140Z 18011KT 35/13 A2972 RMK A01 T03460134  RH  028%=      5-min Rain = 0
KCO2 210141Z 18010KT 35/14 A2972 RMK A01 T03470135  RH  028%=      5-min Rain = 0
KCO2 210142Z 18011KT 35/14 A2972 RMK A01 T03470136  RH  028%=      5-min Rain = 0
KCO2 210143Z 18012KT 35/14 A2972 RMK A01 T03460137  RH  028%=      5-min Rain = 0
KCO2 210144Z 19012KT 35/14 A2972 RMK A01 T03450139  RH  029%=      5-min Rain = 0
KCO2 210145Z 18011KT 34/14 A2972 RMK A01 T03440137  RH  029%=      5-min Rain = 0
KCO2 210146Z 18010KT 34/14 A2972 RMK A01 T03440138  RH  029%=      5-min Rain = 0
KCO2 210147Z 19011KT 34/14 A2972 RMK A01 T03440138  RH  029%=      5-min Rain = 0
KCO2 210148Z 19010KT 35/14 A2972 RMK A01 T03450139  RH  029%=      5-min Rain = 0
KCO2 210149Z 18009KT 35/14 A2972 RMK A01 T03450141  RH  029%=      5-min Rain = 0
KCO2 210150Z 18010KT 34/14 A2972 RMK A01 T03430142  RH  030%=      5-min Rain = 0
KCO2 210151Z 18011KT 34/14 A2972 RMK A01 T03420141  RH  030%=      5-min Rain = 0
KCO2 210152Z 19010KT 34/14 A2972 RMK A01 T03420141  RH  030%=      5-min Rain = 0
KCO2 210153Z 18010KT 34/14 A2972 RMK A01 T03420142  RH  030%=      5-min Rain = 0
KCO2 210154Z 18011KT 34/14 A2972 RMK A01 T03420142  RH  030%=      5-min Rain = 0
KCO2 210155Z 18010KT 34/14 A2972 RMK A01 T03420141  RH  030%=      5-min Rain = 0
KCO2 210156Z 18009KT 34/14 A2972 RMK A01 T03410143  RH  030%=      5-min Rain = 0
KCO2 210157Z 18010KT 34/14 A2972 RMK A01 T03400143  RH  031%=      5-min Rain = 0
KCO2 210158Z 18010KT 34/14 A2972 RMK A01 T03380143  RH  031%=      5-min Rain = 0
KCO2 210159Z 18009KT 34/14 A2972 RMK A01 T03380144  RH  031%=      5-min Rain = 0
KCO2 210200Z 18009KT 34/15 A2972 RMK A01 T03360145  RH  032%=      5-min Rain = 0
KCO2 210201Z 18011KT 33/14 A2972 RMK A01 T03330144  RH  032%=      5-min Rain = 0
KCO2 210202Z 19010KT 33/14 A2972 RMK A01 T03330142  RH  032%=      5-min Rain = 0
KCO2 210203Z 18010KT 33/14 A2972 RMK A01 T03340142  RH  031%=      5-min Rain = 0
KCO2 210204Z 18011KT 34/14 A2973 RMK A01 T03350142  RH  031%=      5-min Rain = 0
KCO2 210205Z 19010KT 34/14 A2973 RMK A01 T03350141  RH  031%=      5-min Rain = 0
KCO2 210206Z 18011KT 34/14 A2973 RMK A01 T03360143  RH  031%=      5-min Rain = 0
KCO2 210207Z 19010KT 34/14 A2973 RMK A01 T03350142  RH  031%=      5-min Rain = 0
KCO2 210208Z 18011KT 34/14 A2973 RMK A01 T03350143  RH  031%=      5-min Rain = 0
KCO2 210209Z 18011KT 34/14 A2973 RMK A01 T03350141  RH  031%=      5-min Rain = 0
KCO2 210210Z 18011KT 34/14 A2973 RMK A01 T03360141  RH  031%=      5-min Rain = 0
KCO2 210211Z 19011KT 34/14 A2973 RMK A01 T03370142  RH  031%=      5-min Rain = 0
KCO2 210212Z 18010KT 34/14 A2973 RMK A01 T03370142  RH  031%=      5-min Rain = 0
KCO2 210213Z 18010KT 34/14 A2973 RMK A01 T03360142  RH  031%=      5-min Rain = 0
KCO2 210214Z 18010KT 34/14 A2973 RMK A01 T03350143  RH  032%=      5-min Rain = 0
KCO2 210215Z 18011KT 33/14 A2973 RMK A01 T03330144  RH  032%=      5-min Rain = 0
KCO2 210216Z 18010KT 33/14 A2973 RMK A01 T03320144  RH  032%=      5-min Rain = 0
KCO2 210217Z 18008KT 33/14 A2973 RMK A01 T03310144  RH  032%=      5-min Rain = 0
KCO2 210218Z 18010KT 33/15 A2973 RMK A01 T03300145  RH  033%=      5-min Rain = 0
KCO2 210219Z 18009KT 33/15 A2973 RMK A01 T03290145  RH  033%=      5-min Rain = 0
KCO2 210220Z 18010KT 33/15 A2973 RMK A01 T03280145  RH  033%=      5-min Rain = 0
KCO2 210221Z 18009KT 33/15 A2973 RMK A01 T03270145  RH  033%=      5-min Rain = 0
KCO2 210222Z 18008KT 33/15 A2973 RMK A01 T03260147  RH  034%=      5-min Rain = 0
KCO2 210223Z 18009KT 32/15 A2973 RMK A01 T03240147  RH  034%=      5-min Rain = 0
KCO2 210224Z 18008KT 32/15 A2973 RMK A01 T03220147  RH  035%=      5-min Rain = 0
KCO2 210225Z 17008KT 32/15 A2973 RMK A01 T03210148  RH  035%=      5-min Rain = 0
KCO2 210226Z 17008KT 32/15 A2973 RMK A01 T03190148  RH  036%=      5-min Rain = 0
KCO2 210227Z 17008KT 32/15 A2973 RMK A01 T03180149  RH  036%=      5-min Rain = 0
KCO2 210228Z 17008KT 32/15 A2973 RMK A01 T03170149  RH  036%=      5-min Rain = 0
KCO2 210229Z 17009KT 32/15 A2973 RMK A01 T03150148  RH  036%=      5-min Rain = 0
KCO2 210230Z 17008KT 32/15 A2973 RMK A01 T03150148  RH  036%=      5-min Rain = 0
KCO2 210231Z 17008KT 32/15 A2973 RMK A01 T03150148  RH  037%=      5-min Rain = 0
KCO2 210232Z 17008KT 31/15 A2973 RMK A01 T03140149  RH  037%=      5-min Rain = 0
KCO2 210233Z 17008KT 31/15 A2973 RMK A01 T03140149  RH  037%=      5-min Rain = 0
KCO2 210234Z 17008KT 31/15 A2974 RMK A01 T03120150  RH  037%=      5-min Rain = 0
KCO2 210235Z 16008KT 31/15 A2974 RMK A01 T03110151  RH  038%=      5-min Rain = 0
KCO2 210236Z 16008KT 31/15 A2974 RMK A01 T03100150  RH  038%=      5-min Rain = 0
KCO2 210237Z 16008KT 31/15 A2974 RMK A01 T03100150  RH  038%=      5-min Rain = 0
KCO2 210238Z 16007KT 31/15 A2974 RMK A01 T03100151  RH  038%=      5-min Rain = 0
KCO2 210239Z 16007KT 31/15 A2974 RMK A01 T03080151  RH  039%=      5-min Rain = 0
KCO2 210240Z 15007KT 31/15 A2974 RMK A01 T03070153  RH  039%=      5-min Rain = 0
KCO2 210241Z 15007KT 31/15 A2974 RMK A01 T03050153  RH  040%=      5-min Rain = 0
KCO2 210242Z 16006KT 30/15 A2974 RMK A01 T03020154  RH  041%=      5-min Rain = 0
KCO2 210243Z 15007KT 30/15 A2974 RMK A01 T03010154  RH  041%=      5-min Rain = 0
KCO2 210244Z 15007KT 30/16 A2974 RMK A01 T02990155  RH  042%=      5-min Rain = 0
KCO2 210245Z 15007KT 30/16 A2974 RMK A01 T02970155  RH  042%=      5-min Rain = 0
KCO2 210246Z 15007KT 30/16 A2974 RMK A01 T02950155  RH  043%=      5-min Rain = 0
KCO2 210247Z 15007KT 29/16 A2974 RMK A01 T02940155  RH  043%=      5-min Rain = 0
KCO2 210248Z 14007KT 29/15 A2974 RMK A01 T02920154  RH  043%=      5-min Rain = 0
KCO2 210249Z 15007KT 29/16 A2974 RMK A01 T02910155  RH  044%=      5-min Rain = 0
KCO2 210250Z 15007KT 29/16 A2974 RMK A01 T02900155  RH  044%=      5-min Rain = 0
KCO2 210251Z 15007KT 29/16 A2974 RMK A01 T02890155  RH  044%=      5-min Rain = 0
KCO2 210252Z 15007KT 29/16 A2974 RMK A01 T02880155  RH  044%=      5-min Rain = 0
KCO2 210253Z 14008KT 29/16 A2974 RMK A01 T02880155  RH  044%=      5-min Rain = 0
KCO2 210254Z 15008KT 29/16 A2974 RMK A01 T02890156  RH  044%=      5-min Rain = 0
KCO2 210255Z 14008KT 29/16 A2974 RMK A01 T02890155  RH  044%=      5-min Rain = 0
KCO2 210256Z 15008KT 29/16 A2974 RMK A01 T02900156  RH  044%=      5-min Rain = 0
KCO2 210257Z 15007KT 29/16 A2974 RMK A01 T02910156  RH  044%=      5-min Rain = 0
KCO2 210258Z 15008KT 29/16 A2974 RMK A01 T02910156  RH  044%=      5-min Rain = 0
KCO2 210259Z 15008KT 29/16 A2974 RMK A01 T02910157  RH  044%=      5-min Rain = 0
KCO2 210300Z 15007KT 29/16 A2974 RMK A01 T02910158  RH  044%=      5-min Rain = 0
KCO2 210301Z 15007KT 29/16 A2974 RMK A01 T02910158  RH  045%=      5-min Rain = 0
KCO2 210302Z 15008KT 29/16 A2974 RMK A01 T02910159  RH  045%=      5-min Rain = 0
KCO2 210303Z 15008KT 29/16 A2974 RMK A01 T02910159  RH  045%=      5-min Rain = 0
KCO2 210304Z 15008KT 29/16 A2975 RMK A01 T02910160  RH  045%=      5-min Rain = 0
KCO2 210305Z 15008KT 29/16 A2975 RMK A01 T02910161  RH  045%=      5-min Rain = 0
KCO2 210306Z 15007KT 29/16 A2975 RMK A01 T02900161  RH  046%=      5-min Rain = 0
KCO2 210307Z 15007KT 29/16 A2975 RMK A01 T02890161  RH  046%=      5-min Rain = 0
KCO2 210308Z 15007KT 29/16 A2975 RMK A01 T02880161  RH  046%=      5-min Rain = 0
KCO2 210309Z 15007KT 29/16 A2975 RMK A01 T02880161  RH  046%=      5-min Rain = 0
KCO2 210310Z 15008KT 29/16 A2975 RMK A01 T02870162  RH  046%=      5-min Rain = 0
KCO2 210311Z 15008KT 29/16 A2975 RMK A01 T02870162  RH  047%=      5-min Rain = 0
KCO2 210312Z 16007KT 29/16 A2975 RMK A01 T02870161  RH  047%=      5-min Rain = 0
KCO2 210313Z 16008KT 29/16 A2975 RMK A01 T02860161  RH  047%=      5-min Rain = 0
KCO2 210314Z 16008KT 29/16 A2975 RMK A01 T02870160  RH  046%=      5-min Rain = 0
KCO2 210315Z 16007KT 29/16 A2975 RMK A01 T02870160  RH  046%=      5-min Rain = 0
KCO2 210316Z 16008KT 29/16 A2975 RMK A01 T02880160  RH  046%=      5-min Rain = 0
KCO2 210317Z 16008KT 29/16 A2975 RMK A01 T02880161  RH  046%=      5-min Rain = 0
KCO2 210318Z 16008KT 29/16 A2975 RMK A01 T02880160  RH  046%=      5-min Rain = 0
KCO2 210319Z 16008KT 29/16 A2975 RMK A01 T02880160  RH  046%=      5-min Rain = 0
KCO2 210320Z 16007KT 29/16 A2975 RMK A01 T02890160  RH  045%=      5-min Rain = 0
KCO2 210321Z 17008KT 29/16 A2975 RMK A01 T02910160  RH  045%=      5-min Rain = 0
KCO2 210322Z 16008KT 29/16 A2976 RMK A01 T02910160  RH  045%=      5-min Rain = 0
KCO2 210323Z 16009KT 29/16 A2976 RMK A01 T02920161  RH  045%=      5-min Rain = 0
KCO2 210324Z 16008KT 29/16 A2976 RMK A01 T02920161  RH  045%=      5-min Rain = 0
KCO2 210325Z 16008KT 29/16 A2976 RMK A01 T02920161  RH  045%=      5-min Rain = 0
KCO2 210326Z 16009KT 29/16 A2976 RMK A01 T02930161  RH  045%=      5-min Rain = 0
KCO2 210327Z 16008KT 29/16 A2976 RMK A01 T02940162  RH  045%=      5-min Rain = 0
KCO2 210328Z 16008KT 29/16 A2976 RMK A01 T02940162  RH  045%=      5-min Rain = 0
KCO2 210329Z 16008KT 29/16 A2976 RMK A01 T02940163  RH  045%=      5-min Rain = 0
KCO2 210330Z 16008KT 29/16 A2976 RMK A01 T02930163  RH  045%=      5-min Rain = 0
KCO2 210331Z 16008KT 29/16 A2976 RMK A01 T02930163  RH  045%=      5-min Rain = 0
KCO2 210332Z 16008KT 29/16 A2976 RMK A01 T02930163  RH  046%=      5-min Rain = 0
KCO2 210333Z 15008KT 29/16 A2976 RMK A01 T02920163  RH  046%=      5-min Rain = 0
KCO2 210334Z 15007KT 29/16 A2976 RMK A01 T02910164  RH  046%=      5-min Rain = 0
KCO2 210335Z 15007KT 29/16 A2976 RMK A01 T02900164  RH  046%=      5-min Rain = 0
KCO2 210336Z 15007KT 29/16 A2976 RMK A01 T02890164  RH  047%=      5-min Rain = 0
KCO2 210337Z 15006KT 29/16 A2976 RMK A01 T02870164  RH  047%=      5-min Rain = 0
KCO2 210338Z 15007KT 29/16 A2976 RMK A01 T02860164  RH  048%=      5-min Rain = 0
KCO2 210339Z 15007KT 29/17 A2977 RMK A01 T02850165  RH  048%=      5-min Rain = 0
KCO2 210340Z 15008KT 28/17 A2977 RMK A01 T02840165  RH  048%=      5-min Rain = 0
KCO2 210341Z 15007KT 28/17 A2977 RMK A01 T02830165  RH  049%=      5-min Rain = 0
KCO2 210342Z 15007KT 28/17 A2977 RMK A01 T02830165  RH  049%=      5-min Rain = 0
KCO2 210343Z 15007KT 28/16 A2977 RMK A01 T02830164  RH  049%=      5-min Rain = 0
KCO2 210344Z 16007KT 28/17 A2977 RMK A01 T02830165  RH  049%=      5-min Rain = 0
KCO2 210345Z 16007KT 28/16 A2977 RMK A01 T02820164  RH  049%=      5-min Rain = 0
KCO2 210346Z 15007KT 28/16 A2977 RMK A01 T02820164  RH  049%=      5-min Rain = 0
KCO2 210347Z 15007KT 28/17 A2977 RMK A01 T02820165  RH  049%=      5-min Rain = 0
KCO2 210348Z 15007KT 28/17 A2977 RMK A01 T02820165  RH  049%=      5-min Rain = 0
KCO2 210349Z 16007KT 28/17 A2977 RMK A01 T02800165  RH  049%=      5-min Rain = 0
KCO2 210350Z 15007KT 28/17 A2977 RMK A01 T02800165  RH  050%=      5-min Rain = 0
KCO2 210351Z 16006KT 28/17 A2977 RMK A01 T02790165  RH  050%=      5-min Rain = 0
KCO2 210352Z 16007KT 28/17 A2977 RMK A01 T02780165  RH  050%=      5-min Rain = 0
KCO2 210353Z 16007KT 28/17 A2977 RMK A01 T02780165  RH  050%=      5-min Rain = 0
KCO2 210354Z 16007KT 28/17 A2977 RMK A01 T02770166  RH  051%=      5-min Rain = 0
KCO2 210355Z 16007KT 28/17 A2977 RMK A01 T02760166  RH  051%=      5-min Rain = 0
KCO2 210356Z 16007KT 28/17 A2977 RMK A01 T02750166  RH  051%=      5-min Rain = 0
KCO2 210357Z 16007KT 27/17 A2977 RMK A01 T02740165  RH  052%=      5-min Rain = 0
KCO2 210358Z 16007KT 27/17 A2977 RMK A01 T02730165  RH  052%=      5-min Rain = 0
KCO2 210359Z 16007KT 27/16 A2977 RMK A01 T02730164  RH  051%=      5-min Rain = 0
KCO2 210400Z 17007KT 27/17 A2977 RMK A01 T02740165  RH  051%=      5-min Rain = 0
KCO2 210401Z 17007KT 27/17 A2977 RMK A01 T02740165  RH  051%=      5-min Rain = 0
KCO2 210402Z 17008KT 28/17 A2978 RMK A01 T02750165  RH  051%=      5-min Rain = 0
KCO2 210403Z 17007KT 28/17 A2978 RMK A01 T02760166  RH  051%=      5-min Rain = 0
KCO2 210404Z 17008KT 28/17 A2978 RMK A01 T02760165  RH  051%=      5-min Rain = 0
KCO2 210405Z 17008KT 28/17 A2978 RMK A01 T02760165  RH  051%=      5-min Rain = 0
KCO2 210406Z 17008KT 28/17 A2978 RMK A01 T02780166  RH  050%=      5-min Rain = 0
KCO2 210407Z 17008KT 28/17 A2978 RMK A01 T02790166  RH  050%=      5-min Rain = 0
KCO2 210408Z 17009KT 28/17 A2978 RMK A01 T02820166  RH  050%=      5-min Rain = 0
KCO2 210409Z 17008KT 28/17 A2978 RMK A01 T02840167  RH  049%=      5-min Rain = 0
KCO2 210410Z 18009KT 29/17 A2978 RMK A01 T02850167  RH  049%=      5-min Rain = 0
KCO2 210411Z 18010KT 29/17 A2978 RMK A01 T02870167  RH  048%=      5-min Rain = 0
KCO2 210412Z 18011KT 29/17 A2978 RMK A01 T02890168  RH  048%=      5-min Rain = 0
KCO2 210413Z 18010G15KT 29/17 A2978 RMK A01 T02930169  RH  047%=      5-min Rain = 0
KCO2 210414Z 17010G15KT 30/17 A2978 RMK A01 T02950169  RH  047%=      5-min Rain = 0
KCO2 210415Z 18011KT 30/17 A2978 RMK A01 T02960170  RH  047%=      5-min Rain = 0
KCO2 210416Z 18011KT 30/17 A2978 RMK A01 T02970170  RH  047%=      5-min Rain = 0
KCO2 210417Z 18011KT 30/17 A2978 RMK A01 T02980171  RH  046%=      5-min Rain = 0
KCO2 210418Z 18011KT 30/17 A2978 RMK A01 T02990171  RH  046%=      5-min Rain = 0
KCO2 210419Z 18009G14KT 30/17 A2978 RMK A01 T02990172  RH  046%=      5-min Rain = 0
KCO2 210420Z 18011KT 30/17 A2978 RMK A01 T02990172  RH  047%=      5-min Rain = 0
KCO2 210421Z 18011KT 30/17 A2978 RMK A01 T02980172  RH  047%=      5-min Rain = 0
KCO2 210422Z 17011KT 30/17 A2978 RMK A01 T02990173  RH  047%=      5-min Rain = 0
KCO2 210423Z 18011KT 30/17 A2978 RMK A01 T03000174  RH  047%=      5-min Rain = 0
KCO2 210424Z 18011KT 30/17 A2978 RMK A01 T03000174  RH  047%=      5-min Rain = 0
KCO2 210425Z 18011KT 30/18 A2978 RMK A01 T03010175  RH  047%=      5-min Rain = 0
KCO2 210426Z 19012KT 30/18 A2978 RMK A01 T03010176  RH  047%=      5-min Rain = 0
KCO2 210427Z 18013KT 30/18 A2978 RMK A01 T03020176  RH  047%=      5-min Rain = 0
KCO2 210428Z 18012KT 30/18 A2978 RMK A01 T03040177  RH  047%=      5-min Rain = 0
KCO2 210429Z 18010KT 31/18 A2978 RMK A01 T03050177  RH  046%=      5-min Rain = 0
KCO2 210430Z 18010KT 31/18 A2978 RMK A01 T03060178  RH  046%=      5-min Rain = 0
KCO2 210431Z 19012G17KT 31/18 A2978 RMK A01 T03050178  RH  047%=      5-min Rain = 0
KCO2 210432Z 18010KT 30/18 A2978 RMK A01 T03040178  RH  047%=      5-min Rain = 0
KCO2 210433Z 18013KT 30/18 A2978 RMK A01 T03040178  RH  047%=      5-min Rain = 0
KCO2 210434Z 18012KT 30/18 A2978 RMK A01 T03040178  RH  047%=      5-min Rain = 0
KCO2 210435Z 18012KT 30/18 A2978 RMK A01 T03040178  RH  047%=      5-min Rain = 0
KCO2 210436Z 18013KT 31/18 A2978 RMK A01 T03050179  RH  047%=      5-min Rain = 0
KCO2 210437Z 18011KT 31/18 A2978 RMK A01 T03050179  RH  047%=      5-min Rain = 0
KCO2 210438Z 18012KT 31/18 A2978 RMK A01 T03060180  RH  047%=      5-min Rain = 0
KCO2 210439Z 18012KT 31/18 A2978 RMK A01 T03050180  RH  047%=      5-min Rain = 0
KCO2 210440Z 18011KT 31/18 A2978 RMK A01 T03050180  RH  047%=      5-min Rain = 0
KCO2 210441Z 19010KT 31/18 A2978 RMK A01 T03050180  RH  047%=      5-min Rain = 0
KCO2 210442Z 19011KT 30/18 A2979 RMK A01 T03040180  RH  047%=      5-min Rain = 0
KCO2 210443Z 18010KT 30/18 A2979 RMK A01 T03040180  RH  048%=      5-min Rain = 0
KCO2 210444Z 19012KT 30/18 A2979 RMK A01 T03030180  RH  048%=      5-min Rain = 0
KCO2 210445Z 18011KT 30/18 A2979 RMK A01 T03030180  RH  048%=      5-min Rain = 0
KCO2 210446Z 19011KT 30/18 A2979 RMK A01 T03040180  RH  048%=      5-min Rain = 0
KCO2 210447Z 19010KT 30/18 A2979 RMK A01 T03030180  RH  048%=      5-min Rain = 0
KCO2 210448Z 19010KT 30/18 A2979 RMK A01 T03020180  RH  048%=      5-min Rain = 0
KCO2 210449Z 19010KT 30/18 A2979 RMK A01 T03010180  RH  048%=      5-min Rain = 0
KCO2 210450Z 19010KT 30/18 A2979 RMK A01 T03010181  RH  049%=      5-min Rain = 0
KCO2 210451Z 19010KT 30/18 A2979 RMK A01 T03000181  RH  049%=      5-min Rain = 0
KCO2 210452Z 19009KT 30/18 A2979 RMK A01 T03000181  RH  049%=      5-min Rain = 0
KCO2 210453Z 19010KT 30/18 A2979 RMK A01 T02990181  RH  049%=      5-min Rain = 0
KCO2 210454Z 19010KT 30/18 A2979 RMK A01 T02980180  RH  049%=      5-min Rain = 0
KCO2 210455Z 18009KT 30/18 A2979 RMK A01 T02980181  RH  049%=      5-min Rain = 0
KCO2 210456Z 19010KT 30/18 A2979 RMK A01 T02970180  RH  050%=      5-min Rain = 0
KCO2 210457Z 19011KT 30/18 A2979 RMK A01 T02970180  RH  049%=      5-min Rain = 0
KCO2 210458Z 18010KT 30/18 A2979 RMK A01 T02970180  RH  049%=      5-min Rain = 0
KCO2 210459Z 18010KT 30/18 A2979 RMK A01 T02970180  RH  049%=      5-min Rain = 0

Page generated in 0.0814 seconds.